<?xml version="1.0" encoding="UTF-8" standalone="no" ?>
<gpx xmlns="http://www.topografix.com/GPX/1/1" xmlns:xsi="http://www.w3.org/2001/XMLSchema-instance" xsi:schemaLocation="http://www.topografix.com/GPX/1/1 http://www.topografix.com/GPX/1/1/gpx.xsd" version="1.1" creator="VisuGPX - https://www.visugpx.com">
  <metadata>
    <name>Béon - Port de Castet</name>
    <desc><![CDATA[Montée sur piste 4x4
traversée vers Port de Castet sur single
Descente sur belle piste double...
Superbe vue en haut de Béon...]]></desc>
  </metadata>
  <trk>
    <name><![CDATA[Tracé actuel: 05 MAI 2017 17:44]]></name>
    <trkseg>
      <trkpt lat="43.03597" lon="-0.41836">
        <ele>456.28</ele>
        <time>2017-05-05T15:44:24Z</time>
      </trkpt>
      <trkpt lat="43.03597" lon="-0.41836">
        <ele>453.88</ele>
        <time>2017-05-05T15:44:50Z</time>
      </trkpt>
      <trkpt lat="43.03598" lon="-0.41839">
        <ele>451</ele>
        <time>2017-05-05T15:45:19Z</time>
      </trkpt>
      <trkpt lat="43.03597" lon="-0.41838">
        <ele>452.92</ele>
        <time>2017-05-05T15:45:48Z</time>
      </trkpt>
      <trkpt lat="43.03598" lon="-0.41837">
        <ele>454.84</ele>
        <time>2017-05-05T15:46:16Z</time>
      </trkpt>
      <trkpt lat="43.03596" lon="-0.41836">
        <ele>453.4</ele>
        <time>2017-05-05T15:46:51Z</time>
      </trkpt>
      <trkpt lat="43.03597" lon="-0.41835">
        <ele>452.92</ele>
        <time>2017-05-05T15:47:03Z</time>
      </trkpt>
      <trkpt lat="43.03597" lon="-0.41835">
        <ele>453.4</ele>
        <time>2017-05-05T15:47:06Z</time>
      </trkpt>
      <trkpt lat="43.03582" lon="-0.41836">
        <ele>451.96</ele>
        <time>2017-05-05T15:47:16Z</time>
      </trkpt>
      <trkpt lat="43.03577" lon="-0.41835">
        <ele>452.44</ele>
        <time>2017-05-05T15:47:18Z</time>
      </trkpt>
      <trkpt lat="43.03581" lon="-0.41825">
        <ele>453.88</ele>
        <time>2017-05-05T15:47:26Z</time>
      </trkpt>
      <trkpt lat="43.03592" lon="-0.41819">
        <ele>456.76</ele>
        <time>2017-05-05T15:47:38Z</time>
      </trkpt>
      <trkpt lat="43.03591" lon="-0.41822">
        <ele>455.32</ele>
        <time>2017-05-05T15:48:04Z</time>
      </trkpt>
      <trkpt lat="43.03592" lon="-0.4182">
        <ele>455.32</ele>
        <time>2017-05-05T15:48:15Z</time>
      </trkpt>
      <trkpt lat="43.03596" lon="-0.41814">
        <ele>457.24</ele>
        <time>2017-05-05T15:48:20Z</time>
      </trkpt>
      <trkpt lat="43.03601" lon="-0.41808">
        <ele>457.24</ele>
        <time>2017-05-05T15:48:24Z</time>
      </trkpt>
      <trkpt lat="43.03622" lon="-0.41796">
        <ele>461.09</ele>
        <time>2017-05-05T15:48:37Z</time>
      </trkpt>
      <trkpt lat="43.03627" lon="-0.41793">
        <ele>461.57</ele>
        <time>2017-05-05T15:48:39Z</time>
      </trkpt>
      <trkpt lat="43.03664" lon="-0.4177">
        <ele>465.9</ele>
        <time>2017-05-05T15:48:55Z</time>
      </trkpt>
      <trkpt lat="43.03697" lon="-0.41743">
        <ele>469.26</ele>
        <time>2017-05-05T15:49:09Z</time>
      </trkpt>
      <trkpt lat="43.03716" lon="-0.41715">
        <ele>471.66</ele>
        <time>2017-05-05T15:49:23Z</time>
      </trkpt>
      <trkpt lat="43.03734" lon="-0.41701">
        <ele>474.55</ele>
        <time>2017-05-05T15:49:36Z</time>
      </trkpt>
      <trkpt lat="43.03738" lon="-0.41697">
        <ele>475.03</ele>
        <time>2017-05-05T15:49:39Z</time>
      </trkpt>
      <trkpt lat="43.03756" lon="-0.41673">
        <ele>477.43</ele>
        <time>2017-05-05T15:49:56Z</time>
      </trkpt>
      <trkpt lat="43.03771" lon="-0.41656">
        <ele>479.35</ele>
        <time>2017-05-05T15:50:11Z</time>
      </trkpt>
      <trkpt lat="43.03783" lon="-0.41646">
        <ele>480.8</ele>
        <time>2017-05-05T15:50:22Z</time>
      </trkpt>
      <trkpt lat="43.03799" lon="-0.41637">
        <ele>482.72</ele>
        <time>2017-05-05T15:50:38Z</time>
      </trkpt>
      <trkpt lat="43.03801" lon="-0.41637">
        <ele>482.72</ele>
        <time>2017-05-05T15:50:39Z</time>
      </trkpt>
      <trkpt lat="43.0381" lon="-0.41633">
        <ele>485.12</ele>
        <time>2017-05-05T15:50:47Z</time>
      </trkpt>
      <trkpt lat="43.03826" lon="-0.41621">
        <ele>488.01</ele>
        <time>2017-05-05T15:51:02Z</time>
      </trkpt>
      <trkpt lat="43.03839" lon="-0.41608">
        <ele>491.37</ele>
        <time>2017-05-05T15:51:16Z</time>
      </trkpt>
      <trkpt lat="43.03856" lon="-0.41595">
        <ele>497.62</ele>
        <time>2017-05-05T15:51:31Z</time>
      </trkpt>
      <trkpt lat="43.03879" lon="-0.41591">
        <ele>502.91</ele>
        <time>2017-05-05T15:51:49Z</time>
      </trkpt>
      <trkpt lat="43.03889" lon="-0.41592">
        <ele>501.95</ele>
        <time>2017-05-05T15:51:59Z</time>
      </trkpt>
      <trkpt lat="43.03909" lon="-0.41585">
        <ele>506.75</ele>
        <time>2017-05-05T15:52:16Z</time>
      </trkpt>
      <trkpt lat="43.03922" lon="-0.41583">
        <ele>509.64</ele>
        <time>2017-05-05T15:52:30Z</time>
      </trkpt>
      <trkpt lat="43.03928" lon="-0.41582">
        <ele>509.64</ele>
        <time>2017-05-05T15:52:35Z</time>
      </trkpt>
      <trkpt lat="43.03947" lon="-0.41576">
        <ele>512.52</ele>
        <time>2017-05-05T15:52:54Z</time>
      </trkpt>
      <trkpt lat="43.03952" lon="-0.41574">
        <ele>512.52</ele>
        <time>2017-05-05T15:52:58Z</time>
      </trkpt>
      <trkpt lat="43.03965" lon="-0.41574">
        <ele>514.44</ele>
        <time>2017-05-05T15:53:10Z</time>
      </trkpt>
      <trkpt lat="43.03981" lon="-0.41575">
        <ele>517.81</ele>
        <time>2017-05-05T15:53:25Z</time>
      </trkpt>
      <trkpt lat="43.03999" lon="-0.41573">
        <ele>523.09</ele>
        <time>2017-05-05T15:53:42Z</time>
      </trkpt>
      <trkpt lat="43.0401" lon="-0.41572">
        <ele>526.46</ele>
        <time>2017-05-05T15:53:51Z</time>
      </trkpt>
      <trkpt lat="43.04012" lon="-0.41567">
        <ele>524.54</ele>
        <time>2017-05-05T15:53:56Z</time>
      </trkpt>
      <trkpt lat="43.04011" lon="-0.41564">
        <ele>524.06</ele>
        <time>2017-05-05T15:53:59Z</time>
      </trkpt>
      <trkpt lat="43.03994" lon="-0.41555">
        <ele>523.58</ele>
        <time>2017-05-05T15:54:16Z</time>
      </trkpt>
      <trkpt lat="43.03982" lon="-0.41548">
        <ele>525.02</ele>
        <time>2017-05-05T15:54:28Z</time>
      </trkpt>
      <trkpt lat="43.0396" lon="-0.41534">
        <ele>526.46</ele>
        <time>2017-05-05T15:54:48Z</time>
      </trkpt>
      <trkpt lat="43.0394" lon="-0.41527">
        <ele>529.34</ele>
        <time>2017-05-05T15:55:05Z</time>
      </trkpt>
      <trkpt lat="43.03926" lon="-0.41524">
        <ele>530.3</ele>
        <time>2017-05-05T15:55:16Z</time>
      </trkpt>
      <trkpt lat="43.03912" lon="-0.41515">
        <ele>531.27</ele>
        <time>2017-05-05T15:55:29Z</time>
      </trkpt>
      <trkpt lat="43.03895" lon="-0.41501">
        <ele>531.75</ele>
        <time>2017-05-05T15:55:46Z</time>
      </trkpt>
      <trkpt lat="43.03874" lon="-0.41491">
        <ele>534.15</ele>
        <time>2017-05-05T15:56:05Z</time>
      </trkpt>
      <trkpt lat="43.03858" lon="-0.41484">
        <ele>536.07</ele>
        <time>2017-05-05T15:56:19Z</time>
      </trkpt>
      <trkpt lat="43.03838" lon="-0.4148">
        <ele>539.44</ele>
        <time>2017-05-05T15:56:36Z</time>
      </trkpt>
      <trkpt lat="43.03836" lon="-0.41481">
        <ele>539.92</ele>
        <time>2017-05-05T15:56:38Z</time>
      </trkpt>
      <trkpt lat="43.03826" lon="-0.41483">
        <ele>541.84</ele>
        <time>2017-05-05T15:56:46Z</time>
      </trkpt>
      <trkpt lat="43.03821" lon="-0.41485">
        <ele>542.32</ele>
        <time>2017-05-05T15:56:50Z</time>
      </trkpt>
      <trkpt lat="43.038" lon="-0.4149">
        <ele>546.65</ele>
        <time>2017-05-05T15:57:07Z</time>
      </trkpt>
      <trkpt lat="43.03783" lon="-0.4149">
        <ele>547.61</ele>
        <time>2017-05-05T15:57:24Z</time>
      </trkpt>
      <trkpt lat="43.03784" lon="-0.4149">
        <ele>545.69</ele>
        <time>2017-05-05T15:57:46Z</time>
      </trkpt>
      <trkpt lat="43.03783" lon="-0.41491">
        <ele>545.2</ele>
        <time>2017-05-05T15:58:06Z</time>
      </trkpt>
      <trkpt lat="43.03771" lon="-0.41489">
        <ele>547.13</ele>
        <time>2017-05-05T15:58:20Z</time>
      </trkpt>
      <trkpt lat="43.03767" lon="-0.41488">
        <ele>547.61</ele>
        <time>2017-05-05T15:58:23Z</time>
      </trkpt>
      <trkpt lat="43.03743" lon="-0.41483">
        <ele>549.53</ele>
        <time>2017-05-05T15:58:40Z</time>
      </trkpt>
      <trkpt lat="43.03724" lon="-0.41492">
        <ele>550.97</ele>
        <time>2017-05-05T15:58:56Z</time>
      </trkpt>
      <trkpt lat="43.03701" lon="-0.41499">
        <ele>554.82</ele>
        <time>2017-05-05T15:59:13Z</time>
      </trkpt>
      <trkpt lat="43.03681" lon="-0.41496">
        <ele>557.22</ele>
        <time>2017-05-05T15:59:29Z</time>
      </trkpt>
      <trkpt lat="43.03678" lon="-0.41496">
        <ele>557.7</ele>
        <time>2017-05-05T15:59:32Z</time>
      </trkpt>
      <trkpt lat="43.03668" lon="-0.41494">
        <ele>558.66</ele>
        <time>2017-05-05T15:59:40Z</time>
      </trkpt>
      <trkpt lat="43.03667" lon="-0.41487">
        <ele>559.14</ele>
        <time>2017-05-05T15:59:44Z</time>
      </trkpt>
      <trkpt lat="43.03672" lon="-0.41483">
        <ele>559.62</ele>
        <time>2017-05-05T15:59:49Z</time>
      </trkpt>
      <trkpt lat="43.03684" lon="-0.41485">
        <ele>561.07</ele>
        <time>2017-05-05T15:59:59Z</time>
      </trkpt>
      <trkpt lat="43.03702" lon="-0.4148">
        <ele>564.91</ele>
        <time>2017-05-05T16:00:13Z</time>
      </trkpt>
      <trkpt lat="43.03721" lon="-0.41465">
        <ele>566.83</ele>
        <time>2017-05-05T16:00:29Z</time>
      </trkpt>
      <trkpt lat="43.03737" lon="-0.41453">
        <ele>569.24</ele>
        <time>2017-05-05T16:00:45Z</time>
      </trkpt>
      <trkpt lat="43.03759" lon="-0.41442">
        <ele>569.72</ele>
        <time>2017-05-05T16:01:01Z</time>
      </trkpt>
      <trkpt lat="43.03784" lon="-0.41433">
        <ele>570.2</ele>
        <time>2017-05-05T16:01:19Z</time>
      </trkpt>
      <trkpt lat="43.03802" lon="-0.41422">
        <ele>572.12</ele>
        <time>2017-05-05T16:01:34Z</time>
      </trkpt>
      <trkpt lat="43.03818" lon="-0.41413">
        <ele>573.08</ele>
        <time>2017-05-05T16:01:48Z</time>
      </trkpt>
      <trkpt lat="43.0384" lon="-0.41403">
        <ele>575.97</ele>
        <time>2017-05-05T16:02:06Z</time>
      </trkpt>
      <trkpt lat="43.03861" lon="-0.41396">
        <ele>578.37</ele>
        <time>2017-05-05T16:02:23Z</time>
      </trkpt>
      <trkpt lat="43.0387" lon="-0.41393">
        <ele>580.29</ele>
        <time>2017-05-05T16:02:30Z</time>
      </trkpt>
      <trkpt lat="43.03891" lon="-0.41394">
        <ele>584.14</ele>
        <time>2017-05-05T16:02:47Z</time>
      </trkpt>
      <trkpt lat="43.03896" lon="-0.41395">
        <ele>585.58</ele>
        <time>2017-05-05T16:02:51Z</time>
      </trkpt>
      <trkpt lat="43.0391" lon="-0.41394">
        <ele>586.54</ele>
        <time>2017-05-05T16:03:02Z</time>
      </trkpt>
      <trkpt lat="43.03935" lon="-0.41395">
        <ele>589.43</ele>
        <time>2017-05-05T16:03:22Z</time>
      </trkpt>
      <trkpt lat="43.03956" lon="-0.41397">
        <ele>591.83</ele>
        <time>2017-05-05T16:03:38Z</time>
      </trkpt>
      <trkpt lat="43.03962" lon="-0.41398">
        <ele>592.31</ele>
        <time>2017-05-05T16:03:43Z</time>
      </trkpt>
      <trkpt lat="43.0398" lon="-0.41398">
        <ele>593.75</ele>
        <time>2017-05-05T16:03:57Z</time>
      </trkpt>
      <trkpt lat="43.03993" lon="-0.41396">
        <ele>596.15</ele>
        <time>2017-05-05T16:04:07Z</time>
      </trkpt>
      <trkpt lat="43.04008" lon="-0.41393">
        <ele>598.08</ele>
        <time>2017-05-05T16:04:18Z</time>
      </trkpt>
      <trkpt lat="43.0403" lon="-0.41388">
        <ele>599.52</ele>
        <time>2017-05-05T16:04:36Z</time>
      </trkpt>
      <trkpt lat="43.04031" lon="-0.41388">
        <ele>599.52</ele>
        <time>2017-05-05T16:04:37Z</time>
      </trkpt>
      <trkpt lat="43.04037" lon="-0.41387">
        <ele>600</ele>
        <time>2017-05-05T16:04:42Z</time>
      </trkpt>
      <trkpt lat="43.04051" lon="-0.41387">
        <ele>603.36</ele>
        <time>2017-05-05T16:04:54Z</time>
      </trkpt>
      <trkpt lat="43.04061" lon="-0.41389">
        <ele>607.21</ele>
        <time>2017-05-05T16:05:01Z</time>
      </trkpt>
      <trkpt lat="43.04082" lon="-0.41381">
        <ele>609.61</ele>
        <time>2017-05-05T16:05:17Z</time>
      </trkpt>
      <trkpt lat="43.04097" lon="-0.4137">
        <ele>609.61</ele>
        <time>2017-05-05T16:05:32Z</time>
      </trkpt>
      <trkpt lat="43.04117" lon="-0.41377">
        <ele>612.5</ele>
        <time>2017-05-05T16:05:48Z</time>
      </trkpt>
      <trkpt lat="43.04119" lon="-0.41378">
        <ele>612.98</ele>
        <time>2017-05-05T16:05:50Z</time>
      </trkpt>
      <trkpt lat="43.04142" lon="-0.41377">
        <ele>619.23</ele>
        <time>2017-05-05T16:06:06Z</time>
      </trkpt>
      <trkpt lat="43.04151" lon="-0.41379">
        <ele>622.59</ele>
        <time>2017-05-05T16:06:13Z</time>
      </trkpt>
      <trkpt lat="43.04158" lon="-0.41382">
        <ele>625.96</ele>
        <time>2017-05-05T16:06:19Z</time>
      </trkpt>
      <trkpt lat="43.04177" lon="-0.41387">
        <ele>629.8</ele>
        <time>2017-05-05T16:06:33Z</time>
      </trkpt>
      <trkpt lat="43.04196" lon="-0.41401">
        <ele>634.61</ele>
        <time>2017-05-05T16:06:48Z</time>
      </trkpt>
      <trkpt lat="43.042" lon="-0.41405">
        <ele>634.61</ele>
        <time>2017-05-05T16:06:52Z</time>
      </trkpt>
      <trkpt lat="43.04211" lon="-0.41407">
        <ele>634.13</ele>
        <time>2017-05-05T16:06:59Z</time>
      </trkpt>
      <trkpt lat="43.04233" lon="-0.414">
        <ele>638.45</ele>
        <time>2017-05-05T16:07:14Z</time>
      </trkpt>
      <trkpt lat="43.04254" lon="-0.41401">
        <ele>642.78</ele>
        <time>2017-05-05T16:07:29Z</time>
      </trkpt>
      <trkpt lat="43.04267" lon="-0.41408">
        <ele>643.74</ele>
        <time>2017-05-05T16:07:40Z</time>
      </trkpt>
      <trkpt lat="43.04282" lon="-0.41404">
        <ele>639.41</ele>
        <time>2017-05-05T16:07:53Z</time>
      </trkpt>
      <trkpt lat="43.04292" lon="-0.41399">
        <ele>639.89</ele>
        <time>2017-05-05T16:08:01Z</time>
      </trkpt>
      <trkpt lat="43.04311" lon="-0.41398">
        <ele>640.86</ele>
        <time>2017-05-05T16:08:17Z</time>
      </trkpt>
      <trkpt lat="43.04321" lon="-0.41393">
        <ele>643.26</ele>
        <time>2017-05-05T16:08:24Z</time>
      </trkpt>
      <trkpt lat="43.04328" lon="-0.41394">
        <ele>644.7</ele>
        <time>2017-05-05T16:08:30Z</time>
      </trkpt>
      <trkpt lat="43.04344" lon="-0.41387">
        <ele>647.59</ele>
        <time>2017-05-05T16:08:42Z</time>
      </trkpt>
      <trkpt lat="43.04355" lon="-0.41388">
        <ele>650.47</ele>
        <time>2017-05-05T16:08:50Z</time>
      </trkpt>
      <trkpt lat="43.04378" lon="-0.41375">
        <ele>650.95</ele>
        <time>2017-05-05T16:09:09Z</time>
      </trkpt>
      <trkpt lat="43.04368" lon="-0.4137">
        <ele>648.07</ele>
        <time>2017-05-05T16:09:21Z</time>
      </trkpt>
      <trkpt lat="43.04363" lon="-0.41375">
        <ele>647.59</ele>
        <time>2017-05-05T16:09:25Z</time>
      </trkpt>
      <trkpt lat="43.04325" lon="-0.41376">
        <ele>647.59</ele>
        <time>2017-05-05T16:09:38Z</time>
      </trkpt>
      <trkpt lat="43.04321" lon="-0.41377">
        <ele>648.07</ele>
        <time>2017-05-05T16:09:40Z</time>
      </trkpt>
      <trkpt lat="43.04312" lon="-0.41372">
        <ele>649.51</ele>
        <time>2017-05-05T16:09:47Z</time>
      </trkpt>
      <trkpt lat="43.04297" lon="-0.41362">
        <ele>650.47</ele>
        <time>2017-05-05T16:10:01Z</time>
      </trkpt>
      <trkpt lat="43.04292" lon="-0.41362">
        <ele>650.95</ele>
        <time>2017-05-05T16:10:05Z</time>
      </trkpt>
      <trkpt lat="43.04285" lon="-0.41363">
        <ele>651.43</ele>
        <time>2017-05-05T16:10:12Z</time>
      </trkpt>
      <trkpt lat="43.04264" lon="-0.41356">
        <ele>654.8</ele>
        <time>2017-05-05T16:10:29Z</time>
      </trkpt>
      <trkpt lat="43.04252" lon="-0.41347">
        <ele>656.24</ele>
        <time>2017-05-05T16:10:41Z</time>
      </trkpt>
      <trkpt lat="43.04247" lon="-0.41344">
        <ele>657.68</ele>
        <time>2017-05-05T16:10:46Z</time>
      </trkpt>
      <trkpt lat="43.04245" lon="-0.41342">
        <ele>658.16</ele>
        <time>2017-05-05T16:10:48Z</time>
      </trkpt>
      <trkpt lat="43.04231" lon="-0.41331">
        <ele>656.72</ele>
        <time>2017-05-05T16:11:02Z</time>
      </trkpt>
      <trkpt lat="43.04227" lon="-0.41327">
        <ele>657.2</ele>
        <time>2017-05-05T16:11:07Z</time>
      </trkpt>
      <trkpt lat="43.04211" lon="-0.41318">
        <ele>661.04</ele>
        <time>2017-05-05T16:11:23Z</time>
      </trkpt>
      <trkpt lat="43.04208" lon="-0.41317">
        <ele>661.52</ele>
        <time>2017-05-05T16:11:26Z</time>
      </trkpt>
      <trkpt lat="43.04184" lon="-0.41308">
        <ele>663.45</ele>
        <time>2017-05-05T16:11:46Z</time>
      </trkpt>
      <trkpt lat="43.0418" lon="-0.41307">
        <ele>664.41</ele>
        <time>2017-05-05T16:11:49Z</time>
      </trkpt>
      <trkpt lat="43.04174" lon="-0.41301">
        <ele>665.37</ele>
        <time>2017-05-05T16:11:55Z</time>
      </trkpt>
      <trkpt lat="43.04175" lon="-0.41295">
        <ele>665.85</ele>
        <time>2017-05-05T16:11:59Z</time>
      </trkpt>
      <trkpt lat="43.04183" lon="-0.41297">
        <ele>667.29</ele>
        <time>2017-05-05T16:12:05Z</time>
      </trkpt>
      <trkpt lat="43.04185" lon="-0.41301">
        <ele>667.77</ele>
        <time>2017-05-05T16:12:08Z</time>
      </trkpt>
      <trkpt lat="43.0419" lon="-0.41302">
        <ele>668.25</ele>
        <time>2017-05-05T16:12:12Z</time>
      </trkpt>
      <trkpt lat="43.04206" lon="-0.41303">
        <ele>669.7</ele>
        <time>2017-05-05T16:12:25Z</time>
      </trkpt>
      <trkpt lat="43.04221" lon="-0.41301">
        <ele>671.62</ele>
        <time>2017-05-05T16:12:39Z</time>
      </trkpt>
      <trkpt lat="43.0424" lon="-0.4131">
        <ele>673.54</ele>
        <time>2017-05-05T16:12:56Z</time>
      </trkpt>
      <trkpt lat="43.04264" lon="-0.4131">
        <ele>674.98</ele>
        <time>2017-05-05T16:13:14Z</time>
      </trkpt>
      <trkpt lat="43.04283" lon="-0.4131">
        <ele>676.91</ele>
        <time>2017-05-05T16:13:30Z</time>
      </trkpt>
      <trkpt lat="43.04305" lon="-0.41304">
        <ele>677.39</ele>
        <time>2017-05-05T16:13:50Z</time>
      </trkpt>
      <trkpt lat="43.04309" lon="-0.41306">
        <ele>677.87</ele>
        <time>2017-05-05T16:13:54Z</time>
      </trkpt>
      <trkpt lat="43.0432" lon="-0.4131">
        <ele>679.79</ele>
        <time>2017-05-05T16:14:04Z</time>
      </trkpt>
      <trkpt lat="43.04337" lon="-0.41304">
        <ele>682.19</ele>
        <time>2017-05-05T16:14:20Z</time>
      </trkpt>
      <trkpt lat="43.04358" lon="-0.41292">
        <ele>684.12</ele>
        <time>2017-05-05T16:14:39Z</time>
      </trkpt>
      <trkpt lat="43.04376" lon="-0.41283">
        <ele>686.52</ele>
        <time>2017-05-05T16:14:54Z</time>
      </trkpt>
      <trkpt lat="43.0439" lon="-0.41272">
        <ele>687</ele>
        <time>2017-05-05T16:15:07Z</time>
      </trkpt>
      <trkpt lat="43.04411" lon="-0.41269">
        <ele>688.92</ele>
        <time>2017-05-05T16:15:25Z</time>
      </trkpt>
      <trkpt lat="43.04421" lon="-0.41271">
        <ele>690.84</ele>
        <time>2017-05-05T16:15:33Z</time>
      </trkpt>
      <trkpt lat="43.04441" lon="-0.41271">
        <ele>693.73</ele>
        <time>2017-05-05T16:15:49Z</time>
      </trkpt>
      <trkpt lat="43.04457" lon="-0.41257">
        <ele>696.61</ele>
        <time>2017-05-05T16:16:06Z</time>
      </trkpt>
      <trkpt lat="43.04472" lon="-0.41239">
        <ele>699.5</ele>
        <time>2017-05-05T16:16:23Z</time>
      </trkpt>
      <trkpt lat="43.0449" lon="-0.41224">
        <ele>703.34</ele>
        <time>2017-05-05T16:16:40Z</time>
      </trkpt>
      <trkpt lat="43.04491" lon="-0.41224">
        <ele>703.34</ele>
        <time>2017-05-05T16:16:41Z</time>
      </trkpt>
      <trkpt lat="43.04506" lon="-0.41219">
        <ele>703.82</ele>
        <time>2017-05-05T16:16:54Z</time>
      </trkpt>
      <trkpt lat="43.0451" lon="-0.41222">
        <ele>703.82</ele>
        <time>2017-05-05T16:17:08Z</time>
      </trkpt>
      <trkpt lat="43.0451" lon="-0.41222">
        <ele>702.86</ele>
        <time>2017-05-05T16:17:35Z</time>
      </trkpt>
      <trkpt lat="43.04511" lon="-0.41223">
        <ele>704.3</ele>
        <time>2017-05-05T16:17:56Z</time>
      </trkpt>
      <trkpt lat="43.0451" lon="-0.41223">
        <ele>706.71</ele>
        <time>2017-05-05T16:18:32Z</time>
      </trkpt>
      <trkpt lat="43.04509" lon="-0.41224">
        <ele>705.26</ele>
        <time>2017-05-05T16:19:09Z</time>
      </trkpt>
      <trkpt lat="43.0451" lon="-0.41223">
        <ele>706.23</ele>
        <time>2017-05-05T16:19:27Z</time>
      </trkpt>
      <trkpt lat="43.04511" lon="-0.41223">
        <ele>706.23</ele>
        <time>2017-05-05T16:19:29Z</time>
      </trkpt>
      <trkpt lat="43.04519" lon="-0.41223">
        <ele>706.71</ele>
        <time>2017-05-05T16:19:34Z</time>
      </trkpt>
      <trkpt lat="43.04541" lon="-0.41219">
        <ele>708.63</ele>
        <time>2017-05-05T16:19:50Z</time>
      </trkpt>
      <trkpt lat="43.04544" lon="-0.41217">
        <ele>709.11</ele>
        <time>2017-05-05T16:19:52Z</time>
      </trkpt>
      <trkpt lat="43.0456" lon="-0.41222">
        <ele>712.47</ele>
        <time>2017-05-05T16:20:06Z</time>
      </trkpt>
      <trkpt lat="43.04577" lon="-0.41239">
        <ele>713.92</ele>
        <time>2017-05-05T16:20:22Z</time>
      </trkpt>
      <trkpt lat="43.04597" lon="-0.41243">
        <ele>716.8</ele>
        <time>2017-05-05T16:20:38Z</time>
      </trkpt>
      <trkpt lat="43.04612" lon="-0.41256">
        <ele>720.16</ele>
        <time>2017-05-05T16:20:53Z</time>
      </trkpt>
      <trkpt lat="43.04615" lon="-0.41262">
        <ele>721.61</ele>
        <time>2017-05-05T16:20:57Z</time>
      </trkpt>
      <trkpt lat="43.04623" lon="-0.41274">
        <ele>722.57</ele>
        <time>2017-05-05T16:21:06Z</time>
      </trkpt>
      <trkpt lat="43.04632" lon="-0.41286">
        <ele>722.57</ele>
        <time>2017-05-05T16:21:16Z</time>
      </trkpt>
      <trkpt lat="43.04646" lon="-0.41307">
        <ele>725.45</ele>
        <time>2017-05-05T16:21:33Z</time>
      </trkpt>
      <trkpt lat="43.04661" lon="-0.41328">
        <ele>728.82</ele>
        <time>2017-05-05T16:21:49Z</time>
      </trkpt>
      <trkpt lat="43.04677" lon="-0.41335">
        <ele>730.26</ele>
        <time>2017-05-05T16:22:03Z</time>
      </trkpt>
      <trkpt lat="43.04686" lon="-0.41336">
        <ele>731.22</ele>
        <time>2017-05-05T16:22:12Z</time>
      </trkpt>
      <trkpt lat="43.04689" lon="-0.41334">
        <ele>731.7</ele>
        <time>2017-05-05T16:22:15Z</time>
      </trkpt>
      <trkpt lat="43.04694" lon="-0.41334">
        <ele>733.14</ele>
        <time>2017-05-05T16:22:19Z</time>
      </trkpt>
      <trkpt lat="43.04699" lon="-0.41332">
        <ele>734.1</ele>
        <time>2017-05-05T16:22:23Z</time>
      </trkpt>
      <trkpt lat="43.04704" lon="-0.41332">
        <ele>734.58</ele>
        <time>2017-05-05T16:22:27Z</time>
      </trkpt>
      <trkpt lat="43.04711" lon="-0.41335">
        <ele>736.03</ele>
        <time>2017-05-05T16:22:33Z</time>
      </trkpt>
      <trkpt lat="43.04719" lon="-0.41339">
        <ele>736.99</ele>
        <time>2017-05-05T16:22:40Z</time>
      </trkpt>
      <trkpt lat="43.04723" lon="-0.41331">
        <ele>738.91</ele>
        <time>2017-05-05T16:22:47Z</time>
      </trkpt>
      <trkpt lat="43.04721" lon="-0.41329">
        <ele>738.91</ele>
        <time>2017-05-05T16:22:49Z</time>
      </trkpt>
      <trkpt lat="43.04719" lon="-0.41328">
        <ele>739.39</ele>
        <time>2017-05-05T16:22:51Z</time>
      </trkpt>
      <trkpt lat="43.04717" lon="-0.41328">
        <ele>740.35</ele>
        <time>2017-05-05T16:22:53Z</time>
      </trkpt>
      <trkpt lat="43.04704" lon="-0.41319">
        <ele>743.24</ele>
        <time>2017-05-05T16:23:06Z</time>
      </trkpt>
      <trkpt lat="43.04689" lon="-0.41306">
        <ele>744.2</ele>
        <time>2017-05-05T16:23:22Z</time>
      </trkpt>
      <trkpt lat="43.04676" lon="-0.41289">
        <ele>746.12</ele>
        <time>2017-05-05T16:23:37Z</time>
      </trkpt>
      <trkpt lat="43.04667" lon="-0.41265">
        <ele>751.41</ele>
        <time>2017-05-05T16:23:55Z</time>
      </trkpt>
      <trkpt lat="43.04667" lon="-0.41263">
        <ele>751.89</ele>
        <time>2017-05-05T16:23:56Z</time>
      </trkpt>
      <trkpt lat="43.04664" lon="-0.41246">
        <ele>754.77</ele>
        <time>2017-05-05T16:24:07Z</time>
      </trkpt>
      <trkpt lat="43.0466" lon="-0.41236">
        <ele>754.29</ele>
        <time>2017-05-05T16:24:15Z</time>
      </trkpt>
      <trkpt lat="43.04654" lon="-0.41226">
        <ele>756.21</ele>
        <time>2017-05-05T16:24:23Z</time>
      </trkpt>
      <trkpt lat="43.04652" lon="-0.41219">
        <ele>756.21</ele>
        <time>2017-05-05T16:24:28Z</time>
      </trkpt>
      <trkpt lat="43.04649" lon="-0.41215">
        <ele>756.21</ele>
        <time>2017-05-05T16:24:31Z</time>
      </trkpt>
      <trkpt lat="43.04647" lon="-0.4121">
        <ele>757.18</ele>
        <time>2017-05-05T16:24:35Z</time>
      </trkpt>
      <trkpt lat="43.04638" lon="-0.4119">
        <ele>760.06</ele>
        <time>2017-05-05T16:24:52Z</time>
      </trkpt>
      <trkpt lat="43.04637" lon="-0.41186">
        <ele>760.06</ele>
        <time>2017-05-05T16:24:55Z</time>
      </trkpt>
      <trkpt lat="43.04622" lon="-0.41169">
        <ele>761.98</ele>
        <time>2017-05-05T16:25:12Z</time>
      </trkpt>
      <trkpt lat="43.04611" lon="-0.41156">
        <ele>762.94</ele>
        <time>2017-05-05T16:25:25Z</time>
      </trkpt>
      <trkpt lat="43.04609" lon="-0.41154">
        <ele>762.94</ele>
        <time>2017-05-05T16:25:27Z</time>
      </trkpt>
      <trkpt lat="43.04603" lon="-0.41141">
        <ele>764.39</ele>
        <time>2017-05-05T16:25:37Z</time>
      </trkpt>
      <trkpt lat="43.04605" lon="-0.41136">
        <ele>764.87</ele>
        <time>2017-05-05T16:25:41Z</time>
      </trkpt>
      <trkpt lat="43.04611" lon="-0.41137">
        <ele>765.83</ele>
        <time>2017-05-05T16:25:46Z</time>
      </trkpt>
      <trkpt lat="43.04613" lon="-0.41143">
        <ele>766.31</ele>
        <time>2017-05-05T16:25:50Z</time>
      </trkpt>
      <trkpt lat="43.04622" lon="-0.41154">
        <ele>768.23</ele>
        <time>2017-05-05T16:26:03Z</time>
      </trkpt>
      <trkpt lat="43.04622" lon="-0.41154">
        <ele>767.75</ele>
        <time>2017-05-05T16:26:38Z</time>
      </trkpt>
      <trkpt lat="43.04622" lon="-0.41153">
        <ele>766.79</ele>
        <time>2017-05-05T16:27:11Z</time>
      </trkpt>
      <trkpt lat="43.04623" lon="-0.41153">
        <ele>765.35</ele>
        <time>2017-05-05T16:27:47Z</time>
      </trkpt>
      <trkpt lat="43.04622" lon="-0.41154">
        <ele>765.35</ele>
        <time>2017-05-05T16:28:11Z</time>
      </trkpt>
      <trkpt lat="43.04622" lon="-0.41154">
        <ele>765.83</ele>
        <time>2017-05-05T16:28:21Z</time>
      </trkpt>
      <trkpt lat="43.04643" lon="-0.4116">
        <ele>768.23</ele>
        <time>2017-05-05T16:28:37Z</time>
      </trkpt>
      <trkpt lat="43.04648" lon="-0.4117">
        <ele>769.67</ele>
        <time>2017-05-05T16:28:44Z</time>
      </trkpt>
      <trkpt lat="43.0466" lon="-0.41183">
        <ele>770.63</ele>
        <time>2017-05-05T16:28:56Z</time>
      </trkpt>
      <trkpt lat="43.04671" lon="-0.41192">
        <ele>773.52</ele>
        <time>2017-05-05T16:29:06Z</time>
      </trkpt>
      <trkpt lat="43.04683" lon="-0.41202">
        <ele>775.92</ele>
        <time>2017-05-05T16:29:16Z</time>
      </trkpt>
      <trkpt lat="43.04704" lon="-0.41215">
        <ele>778.32</ele>
        <time>2017-05-05T16:29:34Z</time>
      </trkpt>
      <trkpt lat="43.04723" lon="-0.41241">
        <ele>784.09</ele>
        <time>2017-05-05T16:29:53Z</time>
      </trkpt>
      <trkpt lat="43.04731" lon="-0.41251">
        <ele>783.61</ele>
        <time>2017-05-05T16:30:02Z</time>
      </trkpt>
      <trkpt lat="43.04742" lon="-0.41258">
        <ele>786.98</ele>
        <time>2017-05-05T16:30:13Z</time>
      </trkpt>
      <trkpt lat="43.04763" lon="-0.41266">
        <ele>787.46</ele>
        <time>2017-05-05T16:30:30Z</time>
      </trkpt>
      <trkpt lat="43.04783" lon="-0.41268">
        <ele>790.34</ele>
        <time>2017-05-05T16:30:46Z</time>
      </trkpt>
      <trkpt lat="43.04799" lon="-0.4127">
        <ele>791.78</ele>
        <time>2017-05-05T16:31:01Z</time>
      </trkpt>
      <trkpt lat="43.04803" lon="-0.41268">
        <ele>793.22</ele>
        <time>2017-05-05T16:31:09Z</time>
      </trkpt>
      <trkpt lat="43.04803" lon="-0.41265">
        <ele>793.71</ele>
        <time>2017-05-05T16:31:11Z</time>
      </trkpt>
      <trkpt lat="43.04797" lon="-0.41262">
        <ele>796.59</ele>
        <time>2017-05-05T16:31:17Z</time>
      </trkpt>
      <trkpt lat="43.04787" lon="-0.41261">
        <ele>798.03</ele>
        <time>2017-05-05T16:31:26Z</time>
      </trkpt>
      <trkpt lat="43.04781" lon="-0.41257">
        <ele>798.51</ele>
        <time>2017-05-05T16:31:32Z</time>
      </trkpt>
      <trkpt lat="43.04777" lon="-0.41255">
        <ele>798.99</ele>
        <time>2017-05-05T16:31:36Z</time>
      </trkpt>
      <trkpt lat="43.04769" lon="-0.41246">
        <ele>798.03</ele>
        <time>2017-05-05T16:31:44Z</time>
      </trkpt>
      <trkpt lat="43.04752" lon="-0.41228">
        <ele>801.4</ele>
        <time>2017-05-05T16:32:03Z</time>
      </trkpt>
      <trkpt lat="43.04739" lon="-0.41215">
        <ele>804.76</ele>
        <time>2017-05-05T16:32:18Z</time>
      </trkpt>
      <trkpt lat="43.04728" lon="-0.41197">
        <ele>806.68</ele>
        <time>2017-05-05T16:32:33Z</time>
      </trkpt>
      <trkpt lat="43.04715" lon="-0.41172">
        <ele>807.64</ele>
        <time>2017-05-05T16:32:53Z</time>
      </trkpt>
      <trkpt lat="43.04701" lon="-0.41151">
        <ele>808.13</ele>
        <time>2017-05-05T16:33:09Z</time>
      </trkpt>
      <trkpt lat="43.04688" lon="-0.41127">
        <ele>810.05</ele>
        <time>2017-05-05T16:33:27Z</time>
      </trkpt>
      <trkpt lat="43.04678" lon="-0.41104">
        <ele>812.93</ele>
        <time>2017-05-05T16:33:45Z</time>
      </trkpt>
      <trkpt lat="43.04676" lon="-0.41099">
        <ele>813.41</ele>
        <time>2017-05-05T16:33:49Z</time>
      </trkpt>
      <trkpt lat="43.04671" lon="-0.41094">
        <ele>814.37</ele>
        <time>2017-05-05T16:33:54Z</time>
      </trkpt>
      <trkpt lat="43.04658" lon="-0.41084">
        <ele>816.78</ele>
        <time>2017-05-05T16:34:06Z</time>
      </trkpt>
      <trkpt lat="43.04658" lon="-0.41081">
        <ele>816.78</ele>
        <time>2017-05-05T16:34:08Z</time>
      </trkpt>
      <trkpt lat="43.04667" lon="-0.41083">
        <ele>820.14</ele>
        <time>2017-05-05T16:34:17Z</time>
      </trkpt>
      <trkpt lat="43.04685" lon="-0.41092">
        <ele>822.06</ele>
        <time>2017-05-05T16:34:35Z</time>
      </trkpt>
      <trkpt lat="43.04695" lon="-0.41105">
        <ele>824.95</ele>
        <time>2017-05-05T16:34:46Z</time>
      </trkpt>
      <trkpt lat="43.04698" lon="-0.4111">
        <ele>825.43</ele>
        <time>2017-05-05T16:34:50Z</time>
      </trkpt>
      <trkpt lat="43.04715" lon="-0.41129">
        <ele>827.83</ele>
        <time>2017-05-05T16:35:07Z</time>
      </trkpt>
      <trkpt lat="43.04729" lon="-0.41137">
        <ele>829.27</ele>
        <time>2017-05-05T16:35:20Z</time>
      </trkpt>
      <trkpt lat="43.04731" lon="-0.41138">
        <ele>828.79</ele>
        <time>2017-05-05T16:35:22Z</time>
      </trkpt>
      <trkpt lat="43.04747" lon="-0.41158">
        <ele>830.72</ele>
        <time>2017-05-05T16:35:40Z</time>
      </trkpt>
      <trkpt lat="43.04768" lon="-0.41172">
        <ele>832.64</ele>
        <time>2017-05-05T16:36:01Z</time>
      </trkpt>
      <trkpt lat="43.04788" lon="-0.41182">
        <ele>838.41</ele>
        <time>2017-05-05T16:36:19Z</time>
      </trkpt>
      <trkpt lat="43.04806" lon="-0.41183">
        <ele>842.25</ele>
        <time>2017-05-05T16:36:34Z</time>
      </trkpt>
      <trkpt lat="43.04825" lon="-0.41191">
        <ele>849.46</ele>
        <time>2017-05-05T16:36:52Z</time>
      </trkpt>
      <trkpt lat="43.04847" lon="-0.41202">
        <ele>854.75</ele>
        <time>2017-05-05T16:37:10Z</time>
      </trkpt>
      <trkpt lat="43.04863" lon="-0.41211">
        <ele>856.19</ele>
        <time>2017-05-05T16:37:24Z</time>
      </trkpt>
      <trkpt lat="43.0487" lon="-0.41217">
        <ele>855.71</ele>
        <time>2017-05-05T16:37:31Z</time>
      </trkpt>
      <trkpt lat="43.04894" lon="-0.41222">
        <ele>852.35</ele>
        <time>2017-05-05T16:37:49Z</time>
      </trkpt>
      <trkpt lat="43.04915" lon="-0.41211">
        <ele>851.38</ele>
        <time>2017-05-05T16:38:01Z</time>
      </trkpt>
      <trkpt lat="43.04928" lon="-0.412">
        <ele>858.11</ele>
        <time>2017-05-05T16:38:16Z</time>
      </trkpt>
      <trkpt lat="43.04937" lon="-0.41185">
        <ele>861.96</ele>
        <time>2017-05-05T16:38:30Z</time>
      </trkpt>
      <trkpt lat="43.04944" lon="-0.41168">
        <ele>861.96</ele>
        <time>2017-05-05T16:38:40Z</time>
      </trkpt>
      <trkpt lat="43.04949" lon="-0.41164">
        <ele>863.88</ele>
        <time>2017-05-05T16:38:45Z</time>
      </trkpt>
      <trkpt lat="43.04952" lon="-0.41147">
        <ele>864.84</ele>
        <time>2017-05-05T16:38:53Z</time>
      </trkpt>
      <trkpt lat="43.04949" lon="-0.41142">
        <ele>863.88</ele>
        <time>2017-05-05T16:38:57Z</time>
      </trkpt>
      <trkpt lat="43.04943" lon="-0.41147">
        <ele>864.84</ele>
        <time>2017-05-05T16:39:06Z</time>
      </trkpt>
      <trkpt lat="43.04941" lon="-0.41152">
        <ele>866.29</ele>
        <time>2017-05-05T16:39:11Z</time>
      </trkpt>
      <trkpt lat="43.04927" lon="-0.41175">
        <ele>871.09</ele>
        <time>2017-05-05T16:39:28Z</time>
      </trkpt>
      <trkpt lat="43.04916" lon="-0.41182">
        <ele>869.17</ele>
        <time>2017-05-05T16:39:35Z</time>
      </trkpt>
      <trkpt lat="43.04904" lon="-0.41186">
        <ele>868.21</ele>
        <time>2017-05-05T16:39:44Z</time>
      </trkpt>
      <trkpt lat="43.04885" lon="-0.41176">
        <ele>866.77</ele>
        <time>2017-05-05T16:40:00Z</time>
      </trkpt>
      <trkpt lat="43.0488" lon="-0.41173">
        <ele>866.29</ele>
        <time>2017-05-05T16:40:05Z</time>
      </trkpt>
      <trkpt lat="43.04864" lon="-0.41159">
        <ele>866.77</ele>
        <time>2017-05-05T16:40:22Z</time>
      </trkpt>
      <trkpt lat="43.04862" lon="-0.41156">
        <ele>866.77</ele>
        <time>2017-05-05T16:40:26Z</time>
      </trkpt>
      <trkpt lat="43.04844" lon="-0.41141">
        <ele>869.17</ele>
        <time>2017-05-05T16:40:44Z</time>
      </trkpt>
      <trkpt lat="43.04843" lon="-0.41141">
        <ele>869.17</ele>
        <time>2017-05-05T16:40:45Z</time>
      </trkpt>
      <trkpt lat="43.04838" lon="-0.41138">
        <ele>869.65</ele>
        <time>2017-05-05T16:40:49Z</time>
      </trkpt>
      <trkpt lat="43.04823" lon="-0.41126">
        <ele>871.57</ele>
        <time>2017-05-05T16:41:04Z</time>
      </trkpt>
      <trkpt lat="43.04802" lon="-0.41114">
        <ele>873.01</ele>
        <time>2017-05-05T16:41:22Z</time>
      </trkpt>
      <trkpt lat="43.048" lon="-0.41112">
        <ele>873.01</ele>
        <time>2017-05-05T16:41:24Z</time>
      </trkpt>
      <trkpt lat="43.04792" lon="-0.41104">
        <ele>873.98</ele>
        <time>2017-05-05T16:41:33Z</time>
      </trkpt>
      <trkpt lat="43.04779" lon="-0.41085">
        <ele>875.9</ele>
        <time>2017-05-05T16:41:50Z</time>
      </trkpt>
      <trkpt lat="43.0477" lon="-0.41066">
        <ele>877.82</ele>
        <time>2017-05-05T16:42:05Z</time>
      </trkpt>
      <trkpt lat="43.04762" lon="-0.41054">
        <ele>880.22</ele>
        <time>2017-05-05T16:42:15Z</time>
      </trkpt>
      <trkpt lat="43.0476" lon="-0.41048">
        <ele>881.19</ele>
        <time>2017-05-05T16:42:19Z</time>
      </trkpt>
      <trkpt lat="43.0476" lon="-0.41045">
        <ele>881.67</ele>
        <time>2017-05-05T16:42:21Z</time>
      </trkpt>
      <trkpt lat="43.04765" lon="-0.41043">
        <ele>883.11</ele>
        <time>2017-05-05T16:42:26Z</time>
      </trkpt>
      <trkpt lat="43.04774" lon="-0.41057">
        <ele>887.43</ele>
        <time>2017-05-05T16:42:37Z</time>
      </trkpt>
      <trkpt lat="43.0479" lon="-0.41068">
        <ele>889.36</ele>
        <time>2017-05-05T16:42:53Z</time>
      </trkpt>
      <trkpt lat="43.04798" lon="-0.41074">
        <ele>889.84</ele>
        <time>2017-05-05T16:43:01Z</time>
      </trkpt>
      <trkpt lat="43.04805" lon="-0.41077">
        <ele>890.32</ele>
        <time>2017-05-05T16:43:08Z</time>
      </trkpt>
      <trkpt lat="43.04814" lon="-0.41082">
        <ele>890.8</ele>
        <time>2017-05-05T16:43:16Z</time>
      </trkpt>
      <trkpt lat="43.04819" lon="-0.41082">
        <ele>890.8</ele>
        <time>2017-05-05T16:43:20Z</time>
      </trkpt>
      <trkpt lat="43.04836" lon="-0.4108">
        <ele>892.72</ele>
        <time>2017-05-05T16:43:36Z</time>
      </trkpt>
      <trkpt lat="43.04847" lon="-0.41081">
        <ele>894.16</ele>
        <time>2017-05-05T16:43:47Z</time>
      </trkpt>
      <trkpt lat="43.04865" lon="-0.4108">
        <ele>897.05</ele>
        <time>2017-05-05T16:44:04Z</time>
      </trkpt>
      <trkpt lat="43.04883" lon="-0.41077">
        <ele>899.45</ele>
        <time>2017-05-05T16:44:21Z</time>
      </trkpt>
      <trkpt lat="43.04889" lon="-0.41073">
        <ele>899.93</ele>
        <time>2017-05-05T16:44:26Z</time>
      </trkpt>
      <trkpt lat="43.04893" lon="-0.41049">
        <ele>902.82</ele>
        <time>2017-05-05T16:44:44Z</time>
      </trkpt>
      <trkpt lat="43.04893" lon="-0.41024">
        <ele>907.14</ele>
        <time>2017-05-05T16:45:01Z</time>
      </trkpt>
      <trkpt lat="43.04895" lon="-0.40998">
        <ele>910.51</ele>
        <time>2017-05-05T16:45:17Z</time>
      </trkpt>
      <trkpt lat="43.04904" lon="-0.40982">
        <ele>913.87</ele>
        <time>2017-05-05T16:45:32Z</time>
      </trkpt>
      <trkpt lat="43.04911" lon="-0.40979">
        <ele>917.72</ele>
        <time>2017-05-05T16:45:40Z</time>
      </trkpt>
      <trkpt lat="43.04917" lon="-0.40974">
        <ele>926.37</ele>
        <time>2017-05-05T16:45:53Z</time>
      </trkpt>
      <trkpt lat="43.04903" lon="-0.40967">
        <ele>925.41</ele>
        <time>2017-05-05T16:46:09Z</time>
      </trkpt>
      <trkpt lat="43.04897" lon="-0.4097">
        <ele>922.52</ele>
        <time>2017-05-05T16:46:16Z</time>
      </trkpt>
      <trkpt lat="43.0489" lon="-0.40977">
        <ele>921.56</ele>
        <time>2017-05-05T16:46:23Z</time>
      </trkpt>
      <trkpt lat="43.04884" lon="-0.40991">
        <ele>923</ele>
        <time>2017-05-05T16:46:33Z</time>
      </trkpt>
      <trkpt lat="43.04875" lon="-0.41025">
        <ele>921.08</ele>
        <time>2017-05-05T16:46:48Z</time>
      </trkpt>
      <trkpt lat="43.04874" lon="-0.41027">
        <ele>921.08</ele>
        <time>2017-05-05T16:46:49Z</time>
      </trkpt>
      <trkpt lat="43.04866" lon="-0.41032">
        <ele>920.6</ele>
        <time>2017-05-05T16:46:54Z</time>
      </trkpt>
      <trkpt lat="43.0483" lon="-0.41021">
        <ele>921.56</ele>
        <time>2017-05-05T16:47:11Z</time>
      </trkpt>
      <trkpt lat="43.04814" lon="-0.41007">
        <ele>922.52</ele>
        <time>2017-05-05T16:47:25Z</time>
      </trkpt>
      <trkpt lat="43.04801" lon="-0.40987">
        <ele>923.96</ele>
        <time>2017-05-05T16:47:42Z</time>
      </trkpt>
      <trkpt lat="43.04798" lon="-0.40983">
        <ele>924.45</ele>
        <time>2017-05-05T16:47:46Z</time>
      </trkpt>
      <trkpt lat="43.04794" lon="-0.40978">
        <ele>924.93</ele>
        <time>2017-05-05T16:47:50Z</time>
      </trkpt>
      <trkpt lat="43.04788" lon="-0.40969">
        <ele>925.41</ele>
        <time>2017-05-05T16:47:58Z</time>
      </trkpt>
      <trkpt lat="43.04771" lon="-0.40949">
        <ele>927.81</ele>
        <time>2017-05-05T16:48:17Z</time>
      </trkpt>
      <trkpt lat="43.04759" lon="-0.40929">
        <ele>929.73</ele>
        <time>2017-05-05T16:48:33Z</time>
      </trkpt>
      <trkpt lat="43.04758" lon="-0.40928">
        <ele>929.73</ele>
        <time>2017-05-05T16:48:34Z</time>
      </trkpt>
      <trkpt lat="43.04757" lon="-0.40925">
        <ele>930.21</ele>
        <time>2017-05-05T16:48:36Z</time>
      </trkpt>
      <trkpt lat="43.04739" lon="-0.40902">
        <ele>934.54</ele>
        <time>2017-05-05T16:48:56Z</time>
      </trkpt>
      <trkpt lat="43.04724" lon="-0.40884">
        <ele>937.42</ele>
        <time>2017-05-05T16:49:12Z</time>
      </trkpt>
      <trkpt lat="43.04721" lon="-0.4088">
        <ele>938.38</ele>
        <time>2017-05-05T16:49:16Z</time>
      </trkpt>
      <trkpt lat="43.04715" lon="-0.40873">
        <ele>940.31</ele>
        <time>2017-05-05T16:49:23Z</time>
      </trkpt>
      <trkpt lat="43.04705" lon="-0.40859">
        <ele>943.19</ele>
        <time>2017-05-05T16:49:37Z</time>
      </trkpt>
      <trkpt lat="43.04707" lon="-0.40854">
        <ele>943.67</ele>
        <time>2017-05-05T16:49:41Z</time>
      </trkpt>
      <trkpt lat="43.04709" lon="-0.40853">
        <ele>944.15</ele>
        <time>2017-05-05T16:49:43Z</time>
      </trkpt>
      <trkpt lat="43.04713" lon="-0.40857">
        <ele>946.07</ele>
        <time>2017-05-05T16:49:47Z</time>
      </trkpt>
      <trkpt lat="43.04715" lon="-0.40859">
        <ele>946.56</ele>
        <time>2017-05-05T16:49:49Z</time>
      </trkpt>
      <trkpt lat="43.04718" lon="-0.40864">
        <ele>948.48</ele>
        <time>2017-05-05T16:49:53Z</time>
      </trkpt>
      <trkpt lat="43.04735" lon="-0.40884">
        <ele>952.32</ele>
        <time>2017-05-05T16:50:13Z</time>
      </trkpt>
      <trkpt lat="43.04755" lon="-0.40899">
        <ele>953.77</ele>
        <time>2017-05-05T16:50:33Z</time>
      </trkpt>
      <trkpt lat="43.04759" lon="-0.40901">
        <ele>953.77</ele>
        <time>2017-05-05T16:50:37Z</time>
      </trkpt>
      <trkpt lat="43.04763" lon="-0.40904">
        <ele>954.25</ele>
        <time>2017-05-05T16:50:41Z</time>
      </trkpt>
      <trkpt lat="43.04767" lon="-0.40905">
        <ele>953.77</ele>
        <time>2017-05-05T16:50:45Z</time>
      </trkpt>
      <trkpt lat="43.04771" lon="-0.40905">
        <ele>952.32</ele>
        <time>2017-05-05T16:50:49Z</time>
      </trkpt>
      <trkpt lat="43.04773" lon="-0.40906">
        <ele>951.84</ele>
        <time>2017-05-05T16:50:51Z</time>
      </trkpt>
      <trkpt lat="43.04777" lon="-0.40908">
        <ele>951.84</ele>
        <time>2017-05-05T16:50:55Z</time>
      </trkpt>
      <trkpt lat="43.04798" lon="-0.40917">
        <ele>952.32</ele>
        <time>2017-05-05T16:51:13Z</time>
      </trkpt>
      <trkpt lat="43.04804" lon="-0.40919">
        <ele>952.8</ele>
        <time>2017-05-05T16:51:18Z</time>
      </trkpt>
      <trkpt lat="43.04809" lon="-0.40922">
        <ele>953.28</ele>
        <time>2017-05-05T16:51:22Z</time>
      </trkpt>
      <trkpt lat="43.04811" lon="-0.40924">
        <ele>953.28</ele>
        <time>2017-05-05T16:51:24Z</time>
      </trkpt>
      <trkpt lat="43.04817" lon="-0.40925">
        <ele>952.8</ele>
        <time>2017-05-05T16:51:36Z</time>
      </trkpt>
      <trkpt lat="43.0483" lon="-0.40925">
        <ele>954.73</ele>
        <time>2017-05-05T16:51:53Z</time>
      </trkpt>
      <trkpt lat="43.04836" lon="-0.40919">
        <ele>957.13</ele>
        <time>2017-05-05T16:52:08Z</time>
      </trkpt>
      <trkpt lat="43.04835" lon="-0.40918">
        <ele>957.13</ele>
        <time>2017-05-05T16:52:12Z</time>
      </trkpt>
      <trkpt lat="43.04836" lon="-0.40908">
        <ele>958.09</ele>
        <time>2017-05-05T16:52:18Z</time>
      </trkpt>
      <trkpt lat="43.04845" lon="-0.4089">
        <ele>960.01</ele>
        <time>2017-05-05T16:52:31Z</time>
      </trkpt>
      <trkpt lat="43.0485" lon="-0.4088">
        <ele>961.94</ele>
        <time>2017-05-05T16:52:39Z</time>
      </trkpt>
      <trkpt lat="43.04859" lon="-0.40859">
        <ele>964.34</ele>
        <time>2017-05-05T16:52:57Z</time>
      </trkpt>
      <trkpt lat="43.04864" lon="-0.40852">
        <ele>965.3</ele>
        <time>2017-05-05T16:53:04Z</time>
      </trkpt>
      <trkpt lat="43.04877" lon="-0.40839">
        <ele>967.22</ele>
        <time>2017-05-05T16:53:18Z</time>
      </trkpt>
      <trkpt lat="43.04877" lon="-0.40837">
        <ele>968.18</ele>
        <time>2017-05-05T16:53:20Z</time>
      </trkpt>
      <trkpt lat="43.04874" lon="-0.40835">
        <ele>968.67</ele>
        <time>2017-05-05T16:53:23Z</time>
      </trkpt>
      <trkpt lat="43.04871" lon="-0.40833">
        <ele>968.67</ele>
        <time>2017-05-05T16:53:35Z</time>
      </trkpt>
      <trkpt lat="43.04872" lon="-0.40834">
        <ele>969.15</ele>
        <time>2017-05-05T16:53:51Z</time>
      </trkpt>
      <trkpt lat="43.04872" lon="-0.40834">
        <ele>968.67</ele>
        <time>2017-05-05T16:54:01Z</time>
      </trkpt>
      <trkpt lat="43.04871" lon="-0.40834">
        <ele>968.67</ele>
        <time>2017-05-05T16:54:21Z</time>
      </trkpt>
      <trkpt lat="43.04873" lon="-0.40834">
        <ele>970.11</ele>
        <time>2017-05-05T16:54:51Z</time>
      </trkpt>
      <trkpt lat="43.04871" lon="-0.40834">
        <ele>969.15</ele>
        <time>2017-05-05T16:55:20Z</time>
      </trkpt>
      <trkpt lat="43.04871" lon="-0.40833">
        <ele>969.15</ele>
        <time>2017-05-05T16:55:53Z</time>
      </trkpt>
      <trkpt lat="43.04871" lon="-0.40834">
        <ele>969.15</ele>
        <time>2017-05-05T16:56:34Z</time>
      </trkpt>
      <trkpt lat="43.04872" lon="-0.40834">
        <ele>968.67</ele>
        <time>2017-05-05T16:57:01Z</time>
      </trkpt>
      <trkpt lat="43.04872" lon="-0.40834">
        <ele>969.63</ele>
        <time>2017-05-05T16:57:11Z</time>
      </trkpt>
      <trkpt lat="43.0487" lon="-0.40838">
        <ele>969.63</ele>
        <time>2017-05-05T16:57:15Z</time>
      </trkpt>
      <trkpt lat="43.04851" lon="-0.40852">
        <ele>972.99</ele>
        <time>2017-05-05T16:57:31Z</time>
      </trkpt>
      <trkpt lat="43.04846" lon="-0.40854">
        <ele>973.47</ele>
        <time>2017-05-05T16:57:35Z</time>
      </trkpt>
      <trkpt lat="43.04825" lon="-0.40861">
        <ele>975.39</ele>
        <time>2017-05-05T16:57:51Z</time>
      </trkpt>
      <trkpt lat="43.04822" lon="-0.40862">
        <ele>975.88</ele>
        <time>2017-05-05T16:57:53Z</time>
      </trkpt>
      <trkpt lat="43.04821" lon="-0.40849">
        <ele>977.8</ele>
        <time>2017-05-05T16:58:05Z</time>
      </trkpt>
      <trkpt lat="43.04829" lon="-0.40843">
        <ele>978.28</ele>
        <time>2017-05-05T16:58:12Z</time>
      </trkpt>
      <trkpt lat="43.04849" lon="-0.40828">
        <ele>981.64</ele>
        <time>2017-05-05T16:58:29Z</time>
      </trkpt>
      <trkpt lat="43.04861" lon="-0.40811">
        <ele>985.01</ele>
        <time>2017-05-05T16:58:43Z</time>
      </trkpt>
      <trkpt lat="43.0487" lon="-0.408">
        <ele>987.89</ele>
        <time>2017-05-05T16:58:52Z</time>
      </trkpt>
      <trkpt lat="43.04875" lon="-0.40798">
        <ele>989.33</ele>
        <time>2017-05-05T16:58:56Z</time>
      </trkpt>
      <trkpt lat="43.04884" lon="-0.408">
        <ele>990.78</ele>
        <time>2017-05-05T16:59:03Z</time>
      </trkpt>
      <trkpt lat="43.04896" lon="-0.40803">
        <ele>991.26</ele>
        <time>2017-05-05T16:59:10Z</time>
      </trkpt>
      <trkpt lat="43.04937" lon="-0.40803">
        <ele>993.66</ele>
        <time>2017-05-05T16:59:26Z</time>
      </trkpt>
      <trkpt lat="43.04975" lon="-0.40817">
        <ele>995.1</ele>
        <time>2017-05-05T16:59:38Z</time>
      </trkpt>
      <trkpt lat="43.04982" lon="-0.40819">
        <ele>995.58</ele>
        <time>2017-05-05T16:59:41Z</time>
      </trkpt>
      <trkpt lat="43.04981" lon="-0.40807">
        <ele>997.51</ele>
        <time>2017-05-05T16:59:52Z</time>
      </trkpt>
      <trkpt lat="43.04971" lon="-0.40798">
        <ele>999.91</ele>
        <time>2017-05-05T17:00:01Z</time>
      </trkpt>
      <trkpt lat="43.04965" lon="-0.40794">
        <ele>1001.35</ele>
        <time>2017-05-05T17:00:06Z</time>
      </trkpt>
      <trkpt lat="43.04944" lon="-0.40783">
        <ele>998.47</ele>
        <time>2017-05-05T17:00:20Z</time>
      </trkpt>
      <trkpt lat="43.04938" lon="-0.40784">
        <ele>998.47</ele>
        <time>2017-05-05T17:00:31Z</time>
      </trkpt>
      <trkpt lat="43.04914" lon="-0.40778">
        <ele>999.43</ele>
        <time>2017-05-05T17:00:44Z</time>
      </trkpt>
      <trkpt lat="43.04894" lon="-0.40767">
        <ele>1001.83</ele>
        <time>2017-05-05T17:00:59Z</time>
      </trkpt>
      <trkpt lat="43.04875" lon="-0.40761">
        <ele>1005.68</ele>
        <time>2017-05-05T17:01:15Z</time>
      </trkpt>
      <trkpt lat="43.04854" lon="-0.40759">
        <ele>1009.04</ele>
        <time>2017-05-05T17:01:31Z</time>
      </trkpt>
      <trkpt lat="43.0483" lon="-0.40759">
        <ele>1009.04</ele>
        <time>2017-05-05T17:01:49Z</time>
      </trkpt>
      <trkpt lat="43.04812" lon="-0.40762">
        <ele>1010</ele>
        <time>2017-05-05T17:02:04Z</time>
      </trkpt>
      <trkpt lat="43.04802" lon="-0.40758">
        <ele>1010</ele>
        <time>2017-05-05T17:02:12Z</time>
      </trkpt>
      <trkpt lat="43.04808" lon="-0.4075">
        <ele>1011.93</ele>
        <time>2017-05-05T17:02:21Z</time>
      </trkpt>
      <trkpt lat="43.04828" lon="-0.40743">
        <ele>1014.33</ele>
        <time>2017-05-05T17:02:37Z</time>
      </trkpt>
      <trkpt lat="43.0484" lon="-0.40725">
        <ele>1015.77</ele>
        <time>2017-05-05T17:02:53Z</time>
      </trkpt>
      <trkpt lat="43.04833" lon="-0.40719">
        <ele>1016.25</ele>
        <time>2017-05-05T17:03:00Z</time>
      </trkpt>
      <trkpt lat="43.04808" lon="-0.40726">
        <ele>1019.13</ele>
        <time>2017-05-05T17:03:20Z</time>
      </trkpt>
      <trkpt lat="43.04798" lon="-0.40726">
        <ele>1020.1</ele>
        <time>2017-05-05T17:03:28Z</time>
      </trkpt>
      <trkpt lat="43.04787" lon="-0.40718">
        <ele>1021.54</ele>
        <time>2017-05-05T17:03:38Z</time>
      </trkpt>
      <trkpt lat="43.04774" lon="-0.40703">
        <ele>1024.42</ele>
        <time>2017-05-05T17:03:53Z</time>
      </trkpt>
      <trkpt lat="43.0477" lon="-0.407">
        <ele>1023.94</ele>
        <time>2017-05-05T17:04:03Z</time>
      </trkpt>
      <trkpt lat="43.04769" lon="-0.40701">
        <ele>1024.42</ele>
        <time>2017-05-05T17:04:30Z</time>
      </trkpt>
      <trkpt lat="43.04768" lon="-0.407">
        <ele>1025.38</ele>
        <time>2017-05-05T17:05:06Z</time>
      </trkpt>
      <trkpt lat="43.04769" lon="-0.407">
        <ele>1025.38</ele>
        <time>2017-05-05T17:05:33Z</time>
      </trkpt>
      <trkpt lat="43.04769" lon="-0.407">
        <ele>1024.9</ele>
        <time>2017-05-05T17:06:13Z</time>
      </trkpt>
      <trkpt lat="43.04769" lon="-0.40701">
        <ele>1024.42</ele>
        <time>2017-05-05T17:07:05Z</time>
      </trkpt>
      <trkpt lat="43.04769" lon="-0.407">
        <ele>1025.38</ele>
        <time>2017-05-05T17:08:02Z</time>
      </trkpt>
      <trkpt lat="43.0477" lon="-0.407">
        <ele>1025.86</ele>
        <time>2017-05-05T17:08:42Z</time>
      </trkpt>
      <trkpt lat="43.0477" lon="-0.407">
        <ele>1025.86</ele>
        <time>2017-05-05T17:09:01Z</time>
      </trkpt>
      <trkpt lat="43.0477" lon="-0.40698">
        <ele>1025.86</ele>
        <time>2017-05-05T17:09:21Z</time>
      </trkpt>
      <trkpt lat="43.04776" lon="-0.40689">
        <ele>1026.34</ele>
        <time>2017-05-05T17:09:28Z</time>
      </trkpt>
      <trkpt lat="43.04789" lon="-0.40669">
        <ele>1028.75</ele>
        <time>2017-05-05T17:09:44Z</time>
      </trkpt>
      <trkpt lat="43.04799" lon="-0.40659">
        <ele>1030.19</ele>
        <time>2017-05-05T17:09:54Z</time>
      </trkpt>
      <trkpt lat="43.04804" lon="-0.40655">
        <ele>1030.67</ele>
        <time>2017-05-05T17:09:58Z</time>
      </trkpt>
      <trkpt lat="43.04823" lon="-0.40643">
        <ele>1032.59</ele>
        <time>2017-05-05T17:10:14Z</time>
      </trkpt>
      <trkpt lat="43.04841" lon="-0.40632">
        <ele>1034.52</ele>
        <time>2017-05-05T17:10:30Z</time>
      </trkpt>
      <trkpt lat="43.04851" lon="-0.40624">
        <ele>1035</ele>
        <time>2017-05-05T17:10:39Z</time>
      </trkpt>
      <trkpt lat="43.04872" lon="-0.40613">
        <ele>1036.44</ele>
        <time>2017-05-05T17:10:56Z</time>
      </trkpt>
      <trkpt lat="43.04895" lon="-0.40605">
        <ele>1038.36</ele>
        <time>2017-05-05T17:11:10Z</time>
      </trkpt>
      <trkpt lat="43.04929" lon="-0.40595">
        <ele>1040.76</ele>
        <time>2017-05-05T17:11:27Z</time>
      </trkpt>
      <trkpt lat="43.04964" lon="-0.40592">
        <ele>1043.65</ele>
        <time>2017-05-05T17:11:45Z</time>
      </trkpt>
      <trkpt lat="43.04993" lon="-0.40594">
        <ele>1046.53</ele>
        <time>2017-05-05T17:12:00Z</time>
      </trkpt>
      <trkpt lat="43.05029" lon="-0.40595">
        <ele>1048.45</ele>
        <time>2017-05-05T17:12:17Z</time>
      </trkpt>
      <trkpt lat="43.05062" lon="-0.4059">
        <ele>1049.42</ele>
        <time>2017-05-05T17:12:32Z</time>
      </trkpt>
      <trkpt lat="43.05096" lon="-0.40582">
        <ele>1047.97</ele>
        <time>2017-05-05T17:12:47Z</time>
      </trkpt>
      <trkpt lat="43.05123" lon="-0.40576">
        <ele>1050.38</ele>
        <time>2017-05-05T17:13:00Z</time>
      </trkpt>
      <trkpt lat="43.05151" lon="-0.40561">
        <ele>1052.78</ele>
        <time>2017-05-05T17:13:14Z</time>
      </trkpt>
      <trkpt lat="43.05162" lon="-0.40546">
        <ele>1053.26</ele>
        <time>2017-05-05T17:13:22Z</time>
      </trkpt>
      <trkpt lat="43.05159" lon="-0.40541">
        <ele>1053.74</ele>
        <time>2017-05-05T17:13:26Z</time>
      </trkpt>
      <trkpt lat="43.05157" lon="-0.40538">
        <ele>1053.74</ele>
        <time>2017-05-05T17:13:29Z</time>
      </trkpt>
      <trkpt lat="43.05138" lon="-0.40525">
        <ele>1054.22</ele>
        <time>2017-05-05T17:13:47Z</time>
      </trkpt>
      <trkpt lat="43.05117" lon="-0.40515">
        <ele>1055.18</ele>
        <time>2017-05-05T17:14:06Z</time>
      </trkpt>
      <trkpt lat="43.05097" lon="-0.40495">
        <ele>1059.03</ele>
        <time>2017-05-05T17:14:28Z</time>
      </trkpt>
      <trkpt lat="43.05081" lon="-0.40479">
        <ele>1061.43</ele>
        <time>2017-05-05T17:14:43Z</time>
      </trkpt>
      <trkpt lat="43.05061" lon="-0.40468">
        <ele>1062.87</ele>
        <time>2017-05-05T17:14:59Z</time>
      </trkpt>
      <trkpt lat="43.05043" lon="-0.40458">
        <ele>1063.84</ele>
        <time>2017-05-05T17:15:14Z</time>
      </trkpt>
      <trkpt lat="43.05039" lon="-0.40456">
        <ele>1064.32</ele>
        <time>2017-05-05T17:15:17Z</time>
      </trkpt>
      <trkpt lat="43.05027" lon="-0.40468">
        <ele>1064.8</ele>
        <time>2017-05-05T17:15:28Z</time>
      </trkpt>
      <trkpt lat="43.05021" lon="-0.4047">
        <ele>1065.28</ele>
        <time>2017-05-05T17:15:33Z</time>
      </trkpt>
      <trkpt lat="43.05009" lon="-0.40454">
        <ele>1065.76</ele>
        <time>2017-05-05T17:15:47Z</time>
      </trkpt>
      <trkpt lat="43.05004" lon="-0.4045">
        <ele>1065.28</ele>
        <time>2017-05-05T17:15:52Z</time>
      </trkpt>
      <trkpt lat="43.0498" lon="-0.40432">
        <ele>1066.24</ele>
        <time>2017-05-05T17:16:07Z</time>
      </trkpt>
      <trkpt lat="43.0495" lon="-0.4042">
        <ele>1067.2</ele>
        <time>2017-05-05T17:16:23Z</time>
      </trkpt>
      <trkpt lat="43.04923" lon="-0.40418">
        <ele>1068.16</ele>
        <time>2017-05-05T17:16:37Z</time>
      </trkpt>
      <trkpt lat="43.04914" lon="-0.40418">
        <ele>1068.64</ele>
        <time>2017-05-05T17:16:42Z</time>
      </trkpt>
      <trkpt lat="43.0491" lon="-0.40418">
        <ele>1068.64</ele>
        <time>2017-05-05T17:16:44Z</time>
      </trkpt>
      <trkpt lat="43.04907" lon="-0.40419">
        <ele>1069.12</ele>
        <time>2017-05-05T17:16:59Z</time>
      </trkpt>
      <trkpt lat="43.04902" lon="-0.4042">
        <ele>1068.64</ele>
        <time>2017-05-05T17:17:33Z</time>
      </trkpt>
      <trkpt lat="43.04898" lon="-0.40421">
        <ele>1068.64</ele>
        <time>2017-05-05T17:17:36Z</time>
      </trkpt>
      <trkpt lat="43.04885" lon="-0.40422">
        <ele>1068.64</ele>
        <time>2017-05-05T17:17:45Z</time>
      </trkpt>
      <trkpt lat="43.0487" lon="-0.40426">
        <ele>1068.16</ele>
        <time>2017-05-05T17:17:53Z</time>
      </trkpt>
      <trkpt lat="43.04856" lon="-0.40434">
        <ele>1067.2</ele>
        <time>2017-05-05T17:18:00Z</time>
      </trkpt>
      <trkpt lat="43.0484" lon="-0.40435">
        <ele>1066.24</ele>
        <time>2017-05-05T17:18:06Z</time>
      </trkpt>
      <trkpt lat="43.04828" lon="-0.40435">
        <ele>1065.28</ele>
        <time>2017-05-05T17:18:12Z</time>
      </trkpt>
      <trkpt lat="43.04796" lon="-0.40401">
        <ele>1062.87</ele>
        <time>2017-05-05T17:18:25Z</time>
      </trkpt>
      <trkpt lat="43.0476" lon="-0.4038">
        <ele>1060.47</ele>
        <time>2017-05-05T17:18:37Z</time>
      </trkpt>
      <trkpt lat="43.04754" lon="-0.40376">
        <ele>1059.99</ele>
        <time>2017-05-05T17:18:39Z</time>
      </trkpt>
      <trkpt lat="43.04746" lon="-0.40371">
        <ele>1059.51</ele>
        <time>2017-05-05T17:18:41Z</time>
      </trkpt>
      <trkpt lat="43.04738" lon="-0.40365">
        <ele>1059.03</ele>
        <time>2017-05-05T17:18:43Z</time>
      </trkpt>
      <trkpt lat="43.04666" lon="-0.40307">
        <ele>1053.74</ele>
        <time>2017-05-05T17:18:57Z</time>
      </trkpt>
      <trkpt lat="43.04659" lon="-0.40303">
        <ele>1053.74</ele>
        <time>2017-05-05T17:18:58Z</time>
      </trkpt>
      <trkpt lat="43.04631" lon="-0.4029">
        <ele>1051.82</ele>
        <time>2017-05-05T17:19:02Z</time>
      </trkpt>
      <trkpt lat="43.04534" lon="-0.40262">
        <ele>1045.09</ele>
        <time>2017-05-05T17:19:14Z</time>
      </trkpt>
      <trkpt lat="43.04474" lon="-0.40229">
        <ele>1044.13</ele>
        <time>2017-05-05T17:19:25Z</time>
      </trkpt>
      <trkpt lat="43.04427" lon="-0.4019">
        <ele>1042.21</ele>
        <time>2017-05-05T17:19:38Z</time>
      </trkpt>
      <trkpt lat="43.04401" lon="-0.40161">
        <ele>1043.17</ele>
        <time>2017-05-05T17:19:51Z</time>
      </trkpt>
      <trkpt lat="43.04368" lon="-0.40137">
        <ele>1043.17</ele>
        <time>2017-05-05T17:20:04Z</time>
      </trkpt>
      <trkpt lat="43.04335" lon="-0.40119">
        <ele>1044.61</ele>
        <time>2017-05-05T17:20:17Z</time>
      </trkpt>
      <trkpt lat="43.04303" lon="-0.40103">
        <ele>1044.61</ele>
        <time>2017-05-05T17:20:28Z</time>
      </trkpt>
      <trkpt lat="43.04272" lon="-0.40086">
        <ele>1046.05</ele>
        <time>2017-05-05T17:20:40Z</time>
      </trkpt>
      <trkpt lat="43.04247" lon="-0.40068">
        <ele>1047.01</ele>
        <time>2017-05-05T17:20:54Z</time>
      </trkpt>
      <trkpt lat="43.0422" lon="-0.40039">
        <ele>1046.05</ele>
        <time>2017-05-05T17:21:10Z</time>
      </trkpt>
      <trkpt lat="43.04197" lon="-0.40022">
        <ele>1045.09</ele>
        <time>2017-05-05T17:21:22Z</time>
      </trkpt>
      <trkpt lat="43.04183" lon="-0.40015">
        <ele>1044.61</ele>
        <time>2017-05-05T17:21:28Z</time>
      </trkpt>
      <trkpt lat="43.04184" lon="-0.39997">
        <ele>1044.13</ele>
        <time>2017-05-05T17:21:38Z</time>
      </trkpt>
      <trkpt lat="43.04184" lon="-0.39997">
        <ele>1045.09</ele>
        <time>2017-05-05T17:21:52Z</time>
      </trkpt>
      <trkpt lat="43.04184" lon="-0.39998">
        <ele>1044.61</ele>
        <time>2017-05-05T17:22:26Z</time>
      </trkpt>
      <trkpt lat="43.04184" lon="-0.39998">
        <ele>1045.57</ele>
        <time>2017-05-05T17:22:58Z</time>
      </trkpt>
      <trkpt lat="43.04183" lon="-0.39996">
        <ele>1045.57</ele>
        <time>2017-05-05T17:23:22Z</time>
      </trkpt>
      <trkpt lat="43.04183" lon="-0.39996">
        <ele>1046.05</ele>
        <time>2017-05-05T17:23:47Z</time>
      </trkpt>
      <trkpt lat="43.04183" lon="-0.39997">
        <ele>1045.57</ele>
        <time>2017-05-05T17:23:57Z</time>
      </trkpt>
      <trkpt lat="43.04185" lon="-0.39999">
        <ele>1045.09</ele>
        <time>2017-05-05T17:24:11Z</time>
      </trkpt>
      <trkpt lat="43.04187" lon="-0.40001">
        <ele>1045.09</ele>
        <time>2017-05-05T17:24:38Z</time>
      </trkpt>
      <trkpt lat="43.04187" lon="-0.40003">
        <ele>1042.69</ele>
        <time>2017-05-05T17:25:00Z</time>
      </trkpt>
      <trkpt lat="43.04187" lon="-0.40002">
        <ele>1042.69</ele>
        <time>2017-05-05T17:25:11Z</time>
      </trkpt>
      <trkpt lat="43.04187" lon="-0.40002">
        <ele>1042.21</ele>
        <time>2017-05-05T17:25:14Z</time>
      </trkpt>
      <trkpt lat="43.04197" lon="-0.4">
        <ele>1041.73</ele>
        <time>2017-05-05T17:25:19Z</time>
      </trkpt>
      <trkpt lat="43.04224" lon="-0.40007">
        <ele>1040.28</ele>
        <time>2017-05-05T17:25:27Z</time>
      </trkpt>
      <trkpt lat="43.04253" lon="-0.40013">
        <ele>1037.88</ele>
        <time>2017-05-05T17:25:33Z</time>
      </trkpt>
      <trkpt lat="43.0432" lon="-0.40022">
        <ele>1032.59</ele>
        <time>2017-05-05T17:25:43Z</time>
      </trkpt>
      <trkpt lat="43.0433" lon="-0.40022">
        <ele>1032.11</ele>
        <time>2017-05-05T17:25:45Z</time>
      </trkpt>
      <trkpt lat="43.04365" lon="-0.40022">
        <ele>1029.23</ele>
        <time>2017-05-05T17:25:54Z</time>
      </trkpt>
      <trkpt lat="43.04367" lon="-0.40022">
        <ele>1029.23</ele>
        <time>2017-05-05T17:25:55Z</time>
      </trkpt>
      <trkpt lat="43.04381" lon="-0.40016">
        <ele>1028.75</ele>
        <time>2017-05-05T17:26:02Z</time>
      </trkpt>
      <trkpt lat="43.04392" lon="-0.40015">
        <ele>1029.23</ele>
        <time>2017-05-05T17:26:09Z</time>
      </trkpt>
      <trkpt lat="43.04422" lon="-0.40032">
        <ele>1024.9</ele>
        <time>2017-05-05T17:26:22Z</time>
      </trkpt>
      <trkpt lat="43.04442" lon="-0.40044">
        <ele>1019.13</ele>
        <time>2017-05-05T17:26:32Z</time>
      </trkpt>
      <trkpt lat="43.04459" lon="-0.40051">
        <ele>1018.17</ele>
        <time>2017-05-05T17:26:38Z</time>
      </trkpt>
      <trkpt lat="43.04462" lon="-0.40053">
        <ele>1019.13</ele>
        <time>2017-05-05T17:26:43Z</time>
      </trkpt>
      <trkpt lat="43.04463" lon="-0.40052">
        <ele>1019.13</ele>
        <time>2017-05-05T17:26:55Z</time>
      </trkpt>
      <trkpt lat="43.04463" lon="-0.40053">
        <ele>1021.54</ele>
        <time>2017-05-05T17:27:37Z</time>
      </trkpt>
      <trkpt lat="43.04461" lon="-0.4005">
        <ele>1021.54</ele>
        <time>2017-05-05T17:28:16Z</time>
      </trkpt>
      <trkpt lat="43.0447" lon="-0.40051">
        <ele>1021.54</ele>
        <time>2017-05-05T17:28:37Z</time>
      </trkpt>
      <trkpt lat="43.04479" lon="-0.40049">
        <ele>1021.06</ele>
        <time>2017-05-05T17:28:52Z</time>
      </trkpt>
      <trkpt lat="43.04479" lon="-0.40049">
        <ele>1021.54</ele>
        <time>2017-05-05T17:28:54Z</time>
      </trkpt>
      <trkpt lat="43.04488" lon="-0.40048">
        <ele>1021.54</ele>
        <time>2017-05-05T17:29:01Z</time>
      </trkpt>
      <trkpt lat="43.04513" lon="-0.40054">
        <ele>1021.06</ele>
        <time>2017-05-05T17:29:15Z</time>
      </trkpt>
      <trkpt lat="43.04538" lon="-0.40055">
        <ele>1020.58</ele>
        <time>2017-05-05T17:29:30Z</time>
      </trkpt>
      <trkpt lat="43.04575" lon="-0.40046">
        <ele>1020.58</ele>
        <time>2017-05-05T17:29:45Z</time>
      </trkpt>
      <trkpt lat="43.0461" lon="-0.40032">
        <ele>1018.65</ele>
        <time>2017-05-05T17:29:57Z</time>
      </trkpt>
      <trkpt lat="43.04659" lon="-0.40025">
        <ele>1018.17</ele>
        <time>2017-05-05T17:30:11Z</time>
      </trkpt>
      <trkpt lat="43.04672" lon="-0.40028">
        <ele>1017.69</ele>
        <time>2017-05-05T17:30:14Z</time>
      </trkpt>
      <trkpt lat="43.04691" lon="-0.40026">
        <ele>1017.21</ele>
        <time>2017-05-05T17:30:18Z</time>
      </trkpt>
      <trkpt lat="43.04714" lon="-0.40022">
        <ele>1016.25</ele>
        <time>2017-05-05T17:30:23Z</time>
      </trkpt>
      <trkpt lat="43.04758" lon="-0.40013">
        <ele>1015.77</ele>
        <time>2017-05-05T17:30:33Z</time>
      </trkpt>
      <trkpt lat="43.04815" lon="-0.39997">
        <ele>1012.89</ele>
        <time>2017-05-05T17:30:48Z</time>
      </trkpt>
      <trkpt lat="43.04836" lon="-0.3999">
        <ele>1010.96</ele>
        <time>2017-05-05T17:30:53Z</time>
      </trkpt>
      <trkpt lat="43.04863" lon="-0.39985">
        <ele>1009.52</ele>
        <time>2017-05-05T17:30:58Z</time>
      </trkpt>
      <trkpt lat="43.04885" lon="-0.39982">
        <ele>1008.56</ele>
        <time>2017-05-05T17:31:02Z</time>
      </trkpt>
      <trkpt lat="43.04906" lon="-0.39973">
        <ele>1007.12</ele>
        <time>2017-05-05T17:31:06Z</time>
      </trkpt>
      <trkpt lat="43.04961" lon="-0.39946">
        <ele>1005.68</ele>
        <time>2017-05-05T17:31:17Z</time>
      </trkpt>
      <trkpt lat="43.04977" lon="-0.39934">
        <ele>1002.31</ele>
        <time>2017-05-05T17:31:26Z</time>
      </trkpt>
      <trkpt lat="43.05008" lon="-0.39907">
        <ele>1000.39</ele>
        <time>2017-05-05T17:31:39Z</time>
      </trkpt>
      <trkpt lat="43.05017" lon="-0.39905">
        <ele>1002.31</ele>
        <time>2017-05-05T17:31:52Z</time>
      </trkpt>
      <trkpt lat="43.05026" lon="-0.39903">
        <ele>1005.2</ele>
        <time>2017-05-05T17:32:04Z</time>
      </trkpt>
      <trkpt lat="43.05058" lon="-0.39887">
        <ele>1006.64</ele>
        <time>2017-05-05T17:32:16Z</time>
      </trkpt>
      <trkpt lat="43.05086" lon="-0.39877">
        <ele>1008.56</ele>
        <time>2017-05-05T17:32:25Z</time>
      </trkpt>
      <trkpt lat="43.05093" lon="-0.39876">
        <ele>1008.08</ele>
        <time>2017-05-05T17:32:27Z</time>
      </trkpt>
      <trkpt lat="43.05151" lon="-0.39853">
        <ele>1005.68</ele>
        <time>2017-05-05T17:32:38Z</time>
      </trkpt>
      <trkpt lat="43.05157" lon="-0.39852">
        <ele>1005.68</ele>
        <time>2017-05-05T17:32:39Z</time>
      </trkpt>
      <trkpt lat="43.0523" lon="-0.39816">
        <ele>997.99</ele>
        <time>2017-05-05T17:32:51Z</time>
      </trkpt>
      <trkpt lat="43.05303" lon="-0.39778">
        <ele>994.62</ele>
        <time>2017-05-05T17:33:01Z</time>
      </trkpt>
      <trkpt lat="43.05319" lon="-0.39769">
        <ele>994.62</ele>
        <time>2017-05-05T17:33:03Z</time>
      </trkpt>
      <trkpt lat="43.05376" lon="-0.39734">
        <ele>994.14</ele>
        <time>2017-05-05T17:33:10Z</time>
      </trkpt>
      <trkpt lat="43.05397" lon="-0.39719">
        <ele>994.14</ele>
        <time>2017-05-05T17:33:13Z</time>
      </trkpt>
      <trkpt lat="43.05419" lon="-0.39708">
        <ele>994.14</ele>
        <time>2017-05-05T17:33:16Z</time>
      </trkpt>
      <trkpt lat="43.0547" lon="-0.39671">
        <ele>994.14</ele>
        <time>2017-05-05T17:33:24Z</time>
      </trkpt>
      <trkpt lat="43.05512" lon="-0.39629">
        <ele>993.66</ele>
        <time>2017-05-05T17:33:33Z</time>
      </trkpt>
      <trkpt lat="43.05523" lon="-0.3962">
        <ele>993.66</ele>
        <time>2017-05-05T17:33:35Z</time>
      </trkpt>
      <trkpt lat="43.05539" lon="-0.39606">
        <ele>993.66</ele>
        <time>2017-05-05T17:33:38Z</time>
      </trkpt>
      <trkpt lat="43.05548" lon="-0.39595">
        <ele>993.66</ele>
        <time>2017-05-05T17:33:40Z</time>
      </trkpt>
      <trkpt lat="43.05584" lon="-0.39556">
        <ele>993.66</ele>
        <time>2017-05-05T17:33:47Z</time>
      </trkpt>
      <trkpt lat="43.05636" lon="-0.39505">
        <ele>991.74</ele>
        <time>2017-05-05T17:33:57Z</time>
      </trkpt>
      <trkpt lat="43.05666" lon="-0.39486">
        <ele>985.97</ele>
        <time>2017-05-05T17:34:08Z</time>
      </trkpt>
      <trkpt lat="43.05669" lon="-0.39482">
        <ele>982.12</ele>
        <time>2017-05-05T17:34:19Z</time>
      </trkpt>
      <trkpt lat="43.05675" lon="-0.3947">
        <ele>983.09</ele>
        <time>2017-05-05T17:34:26Z</time>
      </trkpt>
      <trkpt lat="43.05696" lon="-0.39439">
        <ele>986.93</ele>
        <time>2017-05-05T17:34:37Z</time>
      </trkpt>
      <trkpt lat="43.05704" lon="-0.39424">
        <ele>986.45</ele>
        <time>2017-05-05T17:34:41Z</time>
      </trkpt>
      <trkpt lat="43.05721" lon="-0.39405">
        <ele>988.37</ele>
        <time>2017-05-05T17:34:45Z</time>
      </trkpt>
      <trkpt lat="43.05751" lon="-0.39333">
        <ele>989.33</ele>
        <time>2017-05-05T17:34:58Z</time>
      </trkpt>
      <trkpt lat="43.05739" lon="-0.39311">
        <ele>983.09</ele>
        <time>2017-05-05T17:35:03Z</time>
      </trkpt>
      <trkpt lat="43.05709" lon="-0.39273">
        <ele>969.63</ele>
        <time>2017-05-05T17:35:12Z</time>
      </trkpt>
      <trkpt lat="43.0571" lon="-0.39256">
        <ele>968.18</ele>
        <time>2017-05-05T17:35:14Z</time>
      </trkpt>
      <trkpt lat="43.05713" lon="-0.39229">
        <ele>964.82</ele>
        <time>2017-05-05T17:35:17Z</time>
      </trkpt>
      <trkpt lat="43.0572" lon="-0.39204">
        <ele>962.42</ele>
        <time>2017-05-05T17:35:20Z</time>
      </trkpt>
      <trkpt lat="43.0577" lon="-0.39106">
        <ele>954.25</ele>
        <time>2017-05-05T17:35:31Z</time>
      </trkpt>
      <trkpt lat="43.05796" lon="-0.39062">
        <ele>948.48</ele>
        <time>2017-05-05T17:35:37Z</time>
      </trkpt>
      <trkpt lat="43.05833" lon="-0.38999">
        <ele>946.07</ele>
        <time>2017-05-05T17:35:45Z</time>
      </trkpt>
      <trkpt lat="43.05841" lon="-0.38982">
        <ele>943.67</ele>
        <time>2017-05-05T17:35:47Z</time>
      </trkpt>
      <trkpt lat="43.05869" lon="-0.38929">
        <ele>941.27</ele>
        <time>2017-05-05T17:35:54Z</time>
      </trkpt>
      <trkpt lat="43.05867" lon="-0.38898">
        <ele>929.25</ele>
        <time>2017-05-05T17:35:58Z</time>
      </trkpt>
      <trkpt lat="43.05864" lon="-0.3883">
        <ele>908.1</ele>
        <time>2017-05-05T17:36:07Z</time>
      </trkpt>
      <trkpt lat="43.05862" lon="-0.38825">
        <ele>903.3</ele>
        <time>2017-05-05T17:36:09Z</time>
      </trkpt>
      <trkpt lat="43.05857" lon="-0.38813">
        <ele>887.91</ele>
        <time>2017-05-05T17:36:13Z</time>
      </trkpt>
      <trkpt lat="43.05858" lon="-0.38801">
        <ele>879.26</ele>
        <time>2017-05-05T17:36:20Z</time>
      </trkpt>
      <trkpt lat="43.05879" lon="-0.38775">
        <ele>873.5</ele>
        <time>2017-05-05T17:36:31Z</time>
      </trkpt>
      <trkpt lat="43.05892" lon="-0.38773">
        <ele>869.65</ele>
        <time>2017-05-05T17:36:38Z</time>
      </trkpt>
      <trkpt lat="43.05898" lon="-0.38774">
        <ele>868.21</ele>
        <time>2017-05-05T17:36:42Z</time>
      </trkpt>
      <trkpt lat="43.05906" lon="-0.3878">
        <ele>864.84</ele>
        <time>2017-05-05T17:36:57Z</time>
      </trkpt>
      <trkpt lat="43.05907" lon="-0.3878">
        <ele>864.36</ele>
        <time>2017-05-05T17:37:03Z</time>
      </trkpt>
      <trkpt lat="43.05913" lon="-0.3876">
        <ele>864.84</ele>
        <time>2017-05-05T17:37:13Z</time>
      </trkpt>
      <trkpt lat="43.05936" lon="-0.38729">
        <ele>864.84</ele>
        <time>2017-05-05T17:37:26Z</time>
      </trkpt>
      <trkpt lat="43.05963" lon="-0.38688">
        <ele>863.88</ele>
        <time>2017-05-05T17:37:36Z</time>
      </trkpt>
      <trkpt lat="43.05984" lon="-0.38673">
        <ele>861.48</ele>
        <time>2017-05-05T17:37:40Z</time>
      </trkpt>
      <trkpt lat="43.06002" lon="-0.38666">
        <ele>860.52</ele>
        <time>2017-05-05T17:37:43Z</time>
      </trkpt>
      <trkpt lat="43.06023" lon="-0.38648">
        <ele>860.52</ele>
        <time>2017-05-05T17:37:48Z</time>
      </trkpt>
      <trkpt lat="43.06068" lon="-0.38645">
        <ele>860.52</ele>
        <time>2017-05-05T17:37:59Z</time>
      </trkpt>
      <trkpt lat="43.06072" lon="-0.38644">
        <ele>860.52</ele>
        <time>2017-05-05T17:38:00Z</time>
      </trkpt>
      <trkpt lat="43.06088" lon="-0.38643">
        <ele>861</ele>
        <time>2017-05-05T17:38:04Z</time>
      </trkpt>
      <trkpt lat="43.06104" lon="-0.38647">
        <ele>861</ele>
        <time>2017-05-05T17:38:08Z</time>
      </trkpt>
      <trkpt lat="43.06116" lon="-0.38653">
        <ele>861</ele>
        <time>2017-05-05T17:38:11Z</time>
      </trkpt>
      <trkpt lat="43.06126" lon="-0.38662">
        <ele>861</ele>
        <time>2017-05-05T17:38:14Z</time>
      </trkpt>
      <trkpt lat="43.06147" lon="-0.38688">
        <ele>860.04</ele>
        <time>2017-05-05T17:38:21Z</time>
      </trkpt>
      <trkpt lat="43.06157" lon="-0.38723">
        <ele>858.11</ele>
        <time>2017-05-05T17:38:28Z</time>
      </trkpt>
      <trkpt lat="43.0615" lon="-0.38744">
        <ele>858.11</ele>
        <time>2017-05-05T17:38:32Z</time>
      </trkpt>
      <trkpt lat="43.06131" lon="-0.38771">
        <ele>854.75</ele>
        <time>2017-05-05T17:38:37Z</time>
      </trkpt>
      <trkpt lat="43.06077" lon="-0.38837">
        <ele>847.06</ele>
        <time>2017-05-05T17:38:47Z</time>
      </trkpt>
      <trkpt lat="43.06067" lon="-0.38852">
        <ele>845.62</ele>
        <time>2017-05-05T17:38:49Z</time>
      </trkpt>
      <trkpt lat="43.06048" lon="-0.38893">
        <ele>840.81</ele>
        <time>2017-05-05T17:38:54Z</time>
      </trkpt>
      <trkpt lat="43.06038" lon="-0.3893">
        <ele>836</ele>
        <time>2017-05-05T17:38:58Z</time>
      </trkpt>
      <trkpt lat="43.06027" lon="-0.3904">
        <ele>821.58</ele>
        <time>2017-05-05T17:39:09Z</time>
      </trkpt>
      <trkpt lat="43.06031" lon="-0.39147">
        <ele>810.53</ele>
        <time>2017-05-05T17:39:20Z</time>
      </trkpt>
      <trkpt lat="43.06034" lon="-0.39207">
        <ele>802.84</ele>
        <time>2017-05-05T17:39:27Z</time>
      </trkpt>
      <trkpt lat="43.06035" lon="-0.39213">
        <ele>800.92</ele>
        <time>2017-05-05T17:39:37Z</time>
      </trkpt>
      <trkpt lat="43.06037" lon="-0.39219">
        <ele>799.95</ele>
        <time>2017-05-05T17:39:42Z</time>
      </trkpt>
      <trkpt lat="43.0606" lon="-0.39217">
        <ele>799.95</ele>
        <time>2017-05-05T17:39:47Z</time>
      </trkpt>
      <trkpt lat="43.06133" lon="-0.3918">
        <ele>796.11</ele>
        <time>2017-05-05T17:39:57Z</time>
      </trkpt>
      <trkpt lat="43.06181" lon="-0.39154">
        <ele>792.74</ele>
        <time>2017-05-05T17:40:03Z</time>
      </trkpt>
      <trkpt lat="43.06231" lon="-0.39149">
        <ele>788.42</ele>
        <time>2017-05-05T17:40:09Z</time>
      </trkpt>
      <trkpt lat="43.06257" lon="-0.3914">
        <ele>785.53</ele>
        <time>2017-05-05T17:40:13Z</time>
      </trkpt>
      <trkpt lat="43.06265" lon="-0.39153">
        <ele>783.61</ele>
        <time>2017-05-05T17:40:19Z</time>
      </trkpt>
      <trkpt lat="43.0625" lon="-0.39167">
        <ele>782.65</ele>
        <time>2017-05-05T17:40:23Z</time>
      </trkpt>
      <trkpt lat="43.06226" lon="-0.39205">
        <ele>778.32</ele>
        <time>2017-05-05T17:40:28Z</time>
      </trkpt>
      <trkpt lat="43.06196" lon="-0.39266">
        <ele>771.6</ele>
        <time>2017-05-05T17:40:35Z</time>
      </trkpt>
      <trkpt lat="43.06163" lon="-0.39386">
        <ele>761.02</ele>
        <time>2017-05-05T17:40:46Z</time>
      </trkpt>
      <trkpt lat="43.0615" lon="-0.39429">
        <ele>755.73</ele>
        <time>2017-05-05T17:40:50Z</time>
      </trkpt>
      <trkpt lat="43.06143" lon="-0.39485">
        <ele>749.97</ele>
        <time>2017-05-05T17:40:55Z</time>
      </trkpt>
      <trkpt lat="43.06119" lon="-0.39625">
        <ele>731.7</ele>
        <time>2017-05-05T17:41:06Z</time>
      </trkpt>
      <trkpt lat="43.06115" lon="-0.39658">
        <ele>726.41</ele>
        <time>2017-05-05T17:41:09Z</time>
      </trkpt>
      <trkpt lat="43.06102" lon="-0.39749">
        <ele>712.95</ele>
        <time>2017-05-05T17:41:18Z</time>
      </trkpt>
      <trkpt lat="43.06091" lon="-0.39781">
        <ele>707.67</ele>
        <time>2017-05-05T17:41:26Z</time>
      </trkpt>
      <trkpt lat="43.06093" lon="-0.3978">
        <ele>710.55</ele>
        <time>2017-05-05T17:41:39Z</time>
      </trkpt>
      <trkpt lat="43.06093" lon="-0.3978">
        <ele>711.03</ele>
        <time>2017-05-05T17:41:48Z</time>
      </trkpt>
      <trkpt lat="43.06102" lon="-0.39775">
        <ele>711.99</ele>
        <time>2017-05-05T17:41:52Z</time>
      </trkpt>
      <trkpt lat="43.0611" lon="-0.39763">
        <ele>711.51</ele>
        <time>2017-05-05T17:41:55Z</time>
      </trkpt>
      <trkpt lat="43.06138" lon="-0.39713">
        <ele>710.07</ele>
        <time>2017-05-05T17:42:02Z</time>
      </trkpt>
      <trkpt lat="43.06183" lon="-0.39631">
        <ele>702.86</ele>
        <time>2017-05-05T17:42:11Z</time>
      </trkpt>
      <trkpt lat="43.06193" lon="-0.39613">
        <ele>701.9</ele>
        <time>2017-05-05T17:42:13Z</time>
      </trkpt>
      <trkpt lat="43.06252" lon="-0.39546">
        <ele>697.09</ele>
        <time>2017-05-05T17:42:23Z</time>
      </trkpt>
      <trkpt lat="43.06268" lon="-0.3955">
        <ele>691.33</ele>
        <time>2017-05-05T17:42:29Z</time>
      </trkpt>
      <trkpt lat="43.06266" lon="-0.39555">
        <ele>689.88</ele>
        <time>2017-05-05T17:42:30Z</time>
      </trkpt>
      <trkpt lat="43.06235" lon="-0.39643">
        <ele>683.63</ele>
        <time>2017-05-05T17:42:41Z</time>
      </trkpt>
      <trkpt lat="43.0623" lon="-0.39663">
        <ele>683.15</ele>
        <time>2017-05-05T17:42:43Z</time>
      </trkpt>
      <trkpt lat="43.0622" lon="-0.39704">
        <ele>680.27</ele>
        <time>2017-05-05T17:42:47Z</time>
      </trkpt>
      <trkpt lat="43.06212" lon="-0.39723">
        <ele>678.83</ele>
        <time>2017-05-05T17:42:49Z</time>
      </trkpt>
      <trkpt lat="43.06198" lon="-0.39809">
        <ele>672.1</ele>
        <time>2017-05-05T17:42:57Z</time>
      </trkpt>
      <trkpt lat="43.06179" lon="-0.39829">
        <ele>668.73</ele>
        <time>2017-05-05T17:43:02Z</time>
      </trkpt>
      <trkpt lat="43.06158" lon="-0.39831">
        <ele>667.77</ele>
        <time>2017-05-05T17:43:07Z</time>
      </trkpt>
      <trkpt lat="43.06144" lon="-0.3986">
        <ele>665.85</ele>
        <time>2017-05-05T17:43:15Z</time>
      </trkpt>
      <trkpt lat="43.06147" lon="-0.39863">
        <ele>666.33</ele>
        <time>2017-05-05T17:43:16Z</time>
      </trkpt>
      <trkpt lat="43.06164" lon="-0.39878">
        <ele>670.18</ele>
        <time>2017-05-05T17:43:26Z</time>
      </trkpt>
      <trkpt lat="43.0617" lon="-0.3989">
        <ele>669.22</ele>
        <time>2017-05-05T17:43:35Z</time>
      </trkpt>
      <trkpt lat="43.06174" lon="-0.39902">
        <ele>667.77</ele>
        <time>2017-05-05T17:43:37Z</time>
      </trkpt>
      <trkpt lat="43.0618" lon="-0.39937">
        <ele>662.97</ele>
        <time>2017-05-05T17:43:41Z</time>
      </trkpt>
      <trkpt lat="43.06174" lon="-0.40052">
        <ele>648.07</ele>
        <time>2017-05-05T17:43:52Z</time>
      </trkpt>
      <trkpt lat="43.06169" lon="-0.40075">
        <ele>645.18</ele>
        <time>2017-05-05T17:43:55Z</time>
      </trkpt>
      <trkpt lat="43.06162" lon="-0.40161">
        <ele>635.09</ele>
        <time>2017-05-05T17:44:03Z</time>
      </trkpt>
      <trkpt lat="43.06156" lon="-0.40202">
        <ele>627.88</ele>
        <time>2017-05-05T17:44:10Z</time>
      </trkpt>
      <trkpt lat="43.06161" lon="-0.40198">
        <ele>627.4</ele>
        <time>2017-05-05T17:44:12Z</time>
      </trkpt>
      <trkpt lat="43.0618" lon="-0.4017">
        <ele>624.99</ele>
        <time>2017-05-05T17:44:17Z</time>
      </trkpt>
      <trkpt lat="43.06227" lon="-0.40129">
        <ele>619.23</ele>
        <time>2017-05-05T17:44:24Z</time>
      </trkpt>
      <trkpt lat="43.06251" lon="-0.40146">
        <ele>612.98</ele>
        <time>2017-05-05T17:44:31Z</time>
      </trkpt>
      <trkpt lat="43.0625" lon="-0.40153">
        <ele>612.02</ele>
        <time>2017-05-05T17:44:32Z</time>
      </trkpt>
      <trkpt lat="43.0624" lon="-0.402">
        <ele>608.65</ele>
        <time>2017-05-05T17:44:37Z</time>
      </trkpt>
      <trkpt lat="43.06201" lon="-0.40313">
        <ele>598.08</ele>
        <time>2017-05-05T17:44:49Z</time>
      </trkpt>
      <trkpt lat="43.0619" lon="-0.40356">
        <ele>591.83</ele>
        <time>2017-05-05T17:44:56Z</time>
      </trkpt>
      <trkpt lat="43.06213" lon="-0.40338">
        <ele>588.46</ele>
        <time>2017-05-05T17:45:03Z</time>
      </trkpt>
      <trkpt lat="43.06226" lon="-0.40332">
        <ele>587.5</ele>
        <time>2017-05-05T17:45:05Z</time>
      </trkpt>
      <trkpt lat="43.06258" lon="-0.40328">
        <ele>585.58</ele>
        <time>2017-05-05T17:45:10Z</time>
      </trkpt>
      <trkpt lat="43.06283" lon="-0.40325">
        <ele>583.66</ele>
        <time>2017-05-05T17:45:17Z</time>
      </trkpt>
      <trkpt lat="43.06276" lon="-0.40346">
        <ele>582.7</ele>
        <time>2017-05-05T17:45:21Z</time>
      </trkpt>
      <trkpt lat="43.06264" lon="-0.40377">
        <ele>580.77</ele>
        <time>2017-05-05T17:45:25Z</time>
      </trkpt>
      <trkpt lat="43.06241" lon="-0.40417">
        <ele>577.41</ele>
        <time>2017-05-05T17:45:30Z</time>
      </trkpt>
      <trkpt lat="43.06229" lon="-0.40445">
        <ele>575.01</ele>
        <time>2017-05-05T17:45:33Z</time>
      </trkpt>
      <trkpt lat="43.06222" lon="-0.40489">
        <ele>570.68</ele>
        <time>2017-05-05T17:45:37Z</time>
      </trkpt>
      <trkpt lat="43.06195" lon="-0.40638">
        <ele>549.53</ele>
        <time>2017-05-05T17:45:50Z</time>
      </trkpt>
      <trkpt lat="43.06185" lon="-0.40662">
        <ele>547.61</ele>
        <time>2017-05-05T17:45:54Z</time>
      </trkpt>
      <trkpt lat="43.062" lon="-0.40659">
        <ele>544.24</ele>
        <time>2017-05-05T17:46:00Z</time>
      </trkpt>
      <trkpt lat="43.06234" lon="-0.40617">
        <ele>539.92</ele>
        <time>2017-05-05T17:46:06Z</time>
      </trkpt>
      <trkpt lat="43.06273" lon="-0.40596">
        <ele>531.75</ele>
        <time>2017-05-05T17:46:12Z</time>
      </trkpt>
      <trkpt lat="43.06283" lon="-0.40615">
        <ele>521.65</ele>
        <time>2017-05-05T17:46:19Z</time>
      </trkpt>
      <trkpt lat="43.06276" lon="-0.40626">
        <ele>519.73</ele>
        <time>2017-05-05T17:46:21Z</time>
      </trkpt>
      <trkpt lat="43.06284" lon="-0.40655">
        <ele>513</ele>
        <time>2017-05-05T17:46:27Z</time>
      </trkpt>
      <trkpt lat="43.06301" lon="-0.40647">
        <ele>510.12</ele>
        <time>2017-05-05T17:46:30Z</time>
      </trkpt>
      <trkpt lat="43.06331" lon="-0.40642">
        <ele>506.27</ele>
        <time>2017-05-05T17:46:35Z</time>
      </trkpt>
      <trkpt lat="43.0637" lon="-0.40612">
        <ele>500.02</ele>
        <time>2017-05-05T17:46:43Z</time>
      </trkpt>
      <trkpt lat="43.06374" lon="-0.40605">
        <ele>499.54</ele>
        <time>2017-05-05T17:46:44Z</time>
      </trkpt>
      <trkpt lat="43.06384" lon="-0.40594">
        <ele>498.58</ele>
        <time>2017-05-05T17:46:46Z</time>
      </trkpt>
      <trkpt lat="43.06405" lon="-0.40559">
        <ele>496.66</ele>
        <time>2017-05-05T17:46:53Z</time>
      </trkpt>
      <trkpt lat="43.06409" lon="-0.4056">
        <ele>496.66</ele>
        <time>2017-05-05T17:46:54Z</time>
      </trkpt>
      <trkpt lat="43.06428" lon="-0.40582">
        <ele>494.74</ele>
        <time>2017-05-05T17:47:03Z</time>
      </trkpt>
      <trkpt lat="43.06433" lon="-0.40601">
        <ele>495.22</ele>
        <time>2017-05-05T17:47:13Z</time>
      </trkpt>
      <trkpt lat="43.06435" lon="-0.4061">
        <ele>496.66</ele>
        <time>2017-05-05T17:47:17Z</time>
      </trkpt>
      <trkpt lat="43.06438" lon="-0.40633">
        <ele>499.06</ele>
        <time>2017-05-05T17:47:27Z</time>
      </trkpt>
      <trkpt lat="43.06445" lon="-0.40653">
        <ele>502.43</ele>
        <time>2017-05-05T17:47:37Z</time>
      </trkpt>
      <trkpt lat="43.06447" lon="-0.40659">
        <ele>502.91</ele>
        <time>2017-05-05T17:47:40Z</time>
      </trkpt>
      <trkpt lat="43.06453" lon="-0.40684">
        <ele>498.1</ele>
        <time>2017-05-05T17:47:54Z</time>
      </trkpt>
      <trkpt lat="43.06451" lon="-0.40688">
        <ele>498.1</ele>
        <time>2017-05-05T17:48:11Z</time>
      </trkpt>
      <trkpt lat="43.06452" lon="-0.40689">
        <ele>499.06</ele>
        <time>2017-05-05T17:48:28Z</time>
      </trkpt>
      <trkpt lat="43.06452" lon="-0.407">
        <ele>499.06</ele>
        <time>2017-05-05T17:48:31Z</time>
      </trkpt>
      <trkpt lat="43.06459" lon="-0.40747">
        <ele>496.18</ele>
        <time>2017-05-05T17:48:37Z</time>
      </trkpt>
      <trkpt lat="43.06481" lon="-0.40826">
        <ele>490.41</ele>
        <time>2017-05-05T17:48:43Z</time>
      </trkpt>
      <trkpt lat="43.065" lon="-0.40893">
        <ele>482.72</ele>
        <time>2017-05-05T17:48:47Z</time>
      </trkpt>
      <trkpt lat="43.0651" lon="-0.40957">
        <ele>474.55</ele>
        <time>2017-05-05T17:48:51Z</time>
      </trkpt>
      <trkpt lat="43.06538" lon="-0.41018">
        <ele>464.93</ele>
        <time>2017-05-05T17:48:56Z</time>
      </trkpt>
      <trkpt lat="43.06574" lon="-0.41137">
        <ele>451</ele>
        <time>2017-05-05T17:49:04Z</time>
      </trkpt>
      <trkpt lat="43.06577" lon="-0.41185">
        <ele>449.07</ele>
        <time>2017-05-05T17:49:07Z</time>
      </trkpt>
      <trkpt lat="43.06615" lon="-0.41318">
        <ele>440.9</ele>
        <time>2017-05-05T17:49:17Z</time>
      </trkpt>
      <trkpt lat="43.06625" lon="-0.41374">
        <ele>437.54</ele>
        <time>2017-05-05T17:49:21Z</time>
      </trkpt>
      <trkpt lat="43.06652" lon="-0.41413">
        <ele>436.1</ele>
        <time>2017-05-05T17:49:26Z</time>
      </trkpt>
      <trkpt lat="43.06676" lon="-0.41422">
        <ele>435.61</ele>
        <time>2017-05-05T17:49:29Z</time>
      </trkpt>
      <trkpt lat="43.06706" lon="-0.41441">
        <ele>434.65</ele>
        <time>2017-05-05T17:49:33Z</time>
      </trkpt>
      <trkpt lat="43.06727" lon="-0.41461">
        <ele>433.21</ele>
        <time>2017-05-05T17:49:36Z</time>
      </trkpt>
      <trkpt lat="43.06777" lon="-0.4152">
        <ele>428.89</ele>
        <time>2017-05-05T17:49:44Z</time>
      </trkpt>
      <trkpt lat="43.06769" lon="-0.41555">
        <ele>429.85</ele>
        <time>2017-05-05T17:49:50Z</time>
      </trkpt>
      <trkpt lat="43.06746" lon="-0.41585">
        <ele>430.81</ele>
        <time>2017-05-05T17:49:55Z</time>
      </trkpt>
      <trkpt lat="43.06729" lon="-0.41596">
        <ele>431.77</ele>
        <time>2017-05-05T17:49:58Z</time>
      </trkpt>
      <trkpt lat="43.06642" lon="-0.41614">
        <ele>433.21</ele>
        <time>2017-05-05T17:50:12Z</time>
      </trkpt>
      <trkpt lat="43.06591" lon="-0.41624">
        <ele>433.21</ele>
        <time>2017-05-05T17:50:21Z</time>
      </trkpt>
      <trkpt lat="43.06581" lon="-0.41625">
        <ele>433.21</ele>
        <time>2017-05-05T17:50:23Z</time>
      </trkpt>
      <trkpt lat="43.0657" lon="-0.41625">
        <ele>433.21</ele>
        <time>2017-05-05T17:50:25Z</time>
      </trkpt>
      <trkpt lat="43.06559" lon="-0.41626">
        <ele>433.21</ele>
        <time>2017-05-05T17:50:27Z</time>
      </trkpt>
      <trkpt lat="43.06467" lon="-0.41639">
        <ele>432.73</ele>
        <time>2017-05-05T17:50:43Z</time>
      </trkpt>
      <trkpt lat="43.06445" lon="-0.4164">
        <ele>432.73</ele>
        <time>2017-05-05T17:50:47Z</time>
      </trkpt>
      <trkpt lat="43.06383" lon="-0.41665">
        <ele>430.81</ele>
        <time>2017-05-05T17:50:59Z</time>
      </trkpt>
      <trkpt lat="43.0634" lon="-0.41701">
        <ele>430.33</ele>
        <time>2017-05-05T17:51:08Z</time>
      </trkpt>
      <trkpt lat="43.0632" lon="-0.41712">
        <ele>430.81</ele>
        <time>2017-05-05T17:51:12Z</time>
      </trkpt>
      <trkpt lat="43.06259" lon="-0.41714">
        <ele>431.77</ele>
        <time>2017-05-05T17:51:23Z</time>
      </trkpt>
      <trkpt lat="43.06224" lon="-0.41739">
        <ele>430.33</ele>
        <time>2017-05-05T17:51:30Z</time>
      </trkpt>
      <trkpt lat="43.06129" lon="-0.4186">
        <ele>428.4</ele>
        <time>2017-05-05T17:51:51Z</time>
      </trkpt>
      <trkpt lat="43.06123" lon="-0.41864">
        <ele>428.4</ele>
        <time>2017-05-05T17:51:52Z</time>
      </trkpt>
      <trkpt lat="43.06046" lon="-0.41887">
        <ele>429.37</ele>
        <time>2017-05-05T17:52:06Z</time>
      </trkpt>
      <trkpt lat="43.0602" lon="-0.419">
        <ele>429.85</ele>
        <time>2017-05-05T17:52:11Z</time>
      </trkpt>
      <trkpt lat="43.05997" lon="-0.41902">
        <ele>429.85</ele>
        <time>2017-05-05T17:52:15Z</time>
      </trkpt>
      <trkpt lat="43.05928" lon="-0.4187">
        <ele>430.81</ele>
        <time>2017-05-05T17:52:28Z</time>
      </trkpt>
      <trkpt lat="43.0591" lon="-0.41875">
        <ele>431.29</ele>
        <time>2017-05-05T17:52:32Z</time>
      </trkpt>
      <trkpt lat="43.05902" lon="-0.4188">
        <ele>431.77</ele>
        <time>2017-05-05T17:52:34Z</time>
      </trkpt>
      <trkpt lat="43.05884" lon="-0.41905">
        <ele>432.73</ele>
        <time>2017-05-05T17:52:40Z</time>
      </trkpt>
      <trkpt lat="43.05875" lon="-0.41916">
        <ele>433.21</ele>
        <time>2017-05-05T17:52:43Z</time>
      </trkpt>
      <trkpt lat="43.05868" lon="-0.41922">
        <ele>433.21</ele>
        <time>2017-05-05T17:52:45Z</time>
      </trkpt>
      <trkpt lat="43.05852" lon="-0.4193">
        <ele>432.73</ele>
        <time>2017-05-05T17:52:49Z</time>
      </trkpt>
      <trkpt lat="43.05754" lon="-0.41949">
        <ele>435.13</ele>
        <time>2017-05-05T17:53:09Z</time>
      </trkpt>
      <trkpt lat="43.05685" lon="-0.41974">
        <ele>443.31</ele>
        <time>2017-05-05T17:53:23Z</time>
      </trkpt>
      <trkpt lat="43.05675" lon="-0.41976">
        <ele>444.27</ele>
        <time>2017-05-05T17:53:25Z</time>
      </trkpt>
      <trkpt lat="43.05659" lon="-0.41986">
        <ele>446.67</ele>
        <time>2017-05-05T17:53:29Z</time>
      </trkpt>
      <trkpt lat="43.05635" lon="-0.42">
        <ele>450.03</ele>
        <time>2017-05-05T17:53:34Z</time>
      </trkpt>
      <trkpt lat="43.05567" lon="-0.42053">
        <ele>456.76</ele>
        <time>2017-05-05T17:53:49Z</time>
      </trkpt>
      <trkpt lat="43.05536" lon="-0.42085">
        <ele>456.76</ele>
        <time>2017-05-05T17:53:56Z</time>
      </trkpt>
      <trkpt lat="43.0551" lon="-0.42116">
        <ele>456.28</ele>
        <time>2017-05-05T17:54:02Z</time>
      </trkpt>
      <trkpt lat="43.05496" lon="-0.4213">
        <ele>456.76</ele>
        <time>2017-05-05T17:54:05Z</time>
      </trkpt>
      <trkpt lat="43.05485" lon="-0.42137">
        <ele>456.28</ele>
        <time>2017-05-05T17:54:07Z</time>
      </trkpt>
      <trkpt lat="43.0545" lon="-0.42149">
        <ele>453.4</ele>
        <time>2017-05-05T17:54:13Z</time>
      </trkpt>
      <trkpt lat="43.05366" lon="-0.42164">
        <ele>452.44</ele>
        <time>2017-05-05T17:54:28Z</time>
      </trkpt>
      <trkpt lat="43.05355" lon="-0.42165">
        <ele>451.96</ele>
        <time>2017-05-05T17:54:30Z</time>
      </trkpt>
      <trkpt lat="43.05332" lon="-0.42163">
        <ele>451.96</ele>
        <time>2017-05-05T17:54:34Z</time>
      </trkpt>
      <trkpt lat="43.05257" lon="-0.42126">
        <ele>450.03</ele>
        <time>2017-05-05T17:54:49Z</time>
      </trkpt>
      <trkpt lat="43.05179" lon="-0.42079">
        <ele>448.11</ele>
        <time>2017-05-05T17:55:06Z</time>
      </trkpt>
      <trkpt lat="43.05137" lon="-0.42055">
        <ele>446.67</ele>
        <time>2017-05-05T17:55:15Z</time>
      </trkpt>
      <trkpt lat="43.05073" lon="-0.42056">
        <ele>447.15</ele>
        <time>2017-05-05T17:55:28Z</time>
      </trkpt>
      <trkpt lat="43.05002" lon="-0.42036">
        <ele>447.15</ele>
        <time>2017-05-05T17:55:44Z</time>
      </trkpt>
      <trkpt lat="43.04969" lon="-0.42025">
        <ele>445.23</ele>
        <time>2017-05-05T17:55:56Z</time>
      </trkpt>
      <trkpt lat="43.04968" lon="-0.42027">
        <ele>444.75</ele>
        <time>2017-05-05T17:56:09Z</time>
      </trkpt>
      <trkpt lat="43.04967" lon="-0.42028">
        <ele>445.23</ele>
        <time>2017-05-05T17:56:29Z</time>
      </trkpt>
      <trkpt lat="43.04956" lon="-0.42024">
        <ele>445.23</ele>
        <time>2017-05-05T17:56:35Z</time>
      </trkpt>
      <trkpt lat="43.04942" lon="-0.42022">
        <ele>445.71</ele>
        <time>2017-05-05T17:56:39Z</time>
      </trkpt>
      <trkpt lat="43.04929" lon="-0.42017">
        <ele>445.23</ele>
        <time>2017-05-05T17:56:42Z</time>
      </trkpt>
      <trkpt lat="43.04871" lon="-0.41968">
        <ele>442.82</ele>
        <time>2017-05-05T17:56:56Z</time>
      </trkpt>
      <trkpt lat="43.04799" lon="-0.41937">
        <ele>443.79</ele>
        <time>2017-05-05T17:57:12Z</time>
      </trkpt>
      <trkpt lat="43.04745" lon="-0.41931">
        <ele>444.27</ele>
        <time>2017-05-05T17:57:23Z</time>
      </trkpt>
      <trkpt lat="43.04689" lon="-0.41908">
        <ele>446.67</ele>
        <time>2017-05-05T17:57:37Z</time>
      </trkpt>
      <trkpt lat="43.04675" lon="-0.41901">
        <ele>446.67</ele>
        <time>2017-05-05T17:57:41Z</time>
      </trkpt>
      <trkpt lat="43.0463" lon="-0.41866">
        <ele>445.23</ele>
        <time>2017-05-05T17:57:51Z</time>
      </trkpt>
      <trkpt lat="43.04579" lon="-0.41795">
        <ele>443.31</ele>
        <time>2017-05-05T17:58:03Z</time>
      </trkpt>
      <trkpt lat="43.04544" lon="-0.41776">
        <ele>443.79</ele>
        <time>2017-05-05T17:58:09Z</time>
      </trkpt>
      <trkpt lat="43.04522" lon="-0.41775">
        <ele>443.79</ele>
        <time>2017-05-05T17:58:13Z</time>
      </trkpt>
      <trkpt lat="43.04414" lon="-0.41805">
        <ele>445.23</ele>
        <time>2017-05-05T17:58:31Z</time>
      </trkpt>
      <trkpt lat="43.04341" lon="-0.41814">
        <ele>446.67</ele>
        <time>2017-05-05T17:58:43Z</time>
      </trkpt>
      <trkpt lat="43.04328" lon="-0.41818">
        <ele>447.15</ele>
        <time>2017-05-05T17:58:45Z</time>
      </trkpt>
      <trkpt lat="43.0424" lon="-0.4186">
        <ele>447.15</ele>
        <time>2017-05-05T17:58:59Z</time>
      </trkpt>
      <trkpt lat="43.04197" lon="-0.41844">
        <ele>446.67</ele>
        <time>2017-05-05T17:59:07Z</time>
      </trkpt>
      <trkpt lat="43.04164" lon="-0.41797">
        <ele>445.23</ele>
        <time>2017-05-05T17:59:17Z</time>
      </trkpt>
      <trkpt lat="43.04144" lon="-0.41785">
        <ele>446.67</ele>
        <time>2017-05-05T17:59:22Z</time>
      </trkpt>
      <trkpt lat="43.04087" lon="-0.41775">
        <ele>453.4</ele>
        <time>2017-05-05T17:59:38Z</time>
      </trkpt>
      <trkpt lat="43.04045" lon="-0.41744">
        <ele>452.44</ele>
        <time>2017-05-05T17:59:51Z</time>
      </trkpt>
      <trkpt lat="43.04014" lon="-0.41729">
        <ele>451.96</ele>
        <time>2017-05-05T17:59:58Z</time>
      </trkpt>
      <trkpt lat="43.03955" lon="-0.41716">
        <ele>454.36</ele>
        <time>2017-05-05T18:00:08Z</time>
      </trkpt>
      <trkpt lat="43.03931" lon="-0.41717">
        <ele>455.32</ele>
        <time>2017-05-05T18:00:12Z</time>
      </trkpt>
      <trkpt lat="43.03848" lon="-0.41727">
        <ele>463.01</ele>
        <time>2017-05-05T18:00:28Z</time>
      </trkpt>
      <trkpt lat="43.03793" lon="-0.41751">
        <ele>463.49</ele>
        <time>2017-05-05T18:00:40Z</time>
      </trkpt>
      <trkpt lat="43.03727" lon="-0.41787">
        <ele>460.13</ele>
        <time>2017-05-05T18:00:55Z</time>
      </trkpt>
      <trkpt lat="43.03649" lon="-0.41816">
        <ele>456.28</ele>
        <time>2017-05-05T18:01:12Z</time>
      </trkpt>
      <trkpt lat="43.03599" lon="-0.41833">
        <ele>454.84</ele>
        <time>2017-05-05T18:01:26Z</time>
      </trkpt>
      <trkpt lat="43.03598" lon="-0.41835">
        <ele>453.4</ele>
        <time>2017-05-05T18:01:34Z</time>
      </trkpt>
      <trkpt lat="43.03599" lon="-0.41836">
        <ele>454.36</ele>
        <time>2017-05-05T18:01:50Z</time>
      </trkpt>
      <trkpt lat="43.03599" lon="-0.41836">
        <ele>454.36</ele>
        <time>2017-05-05T18:01:52Z</time>
      </trkpt>
    </trkseg>
  </trk>
</gpx>